Persoonlijke hulpmiddelen
Inloggen

MoF Eerbeek Lievelde

Extensible Markup Language (XML) icon MoF Eerbeek - Lievelde.gpx — Extensible Markup Language (XML), 89 KB (91691 bytes)

Bestandsinhoud

<?xml version="1.0"?>
<gpx xmlns="http://www.topografix.com/GPX/1/1" version="1.1" creator="afstandmeten.nl" xmlns:xsi="http://www.w3.org/2001/XMLSchema-instance" xsi:schemaLocation="http://www.topografix.com/GPX/1/1 http://www.topografix.com/GPX/1/1/gpx.xsd">
  <trk>
    <name>MoF Eerbeek - Lievelde</name>
    <desc></desc>
    <trkseg>
      <trkpt lat="52.1067111" lon="6.0727224">
        <time>2017-09-22T00:00:00Z</time>
      </trkpt>
      <trkpt lat="52.10659" lon="6.07262">
        <time>2017-09-22T00:00:01Z</time>
      </trkpt>
      <trkpt lat="52.10651" lon="6.07255">
        <time>2017-09-22T00:00:02Z</time>
      </trkpt>
      <trkpt lat="52.10653" lon="6.07276">
        <time>2017-09-22T00:00:03Z</time>
      </trkpt>
      <trkpt lat="52.10654" lon="6.07284">
        <time>2017-09-22T00:00:03Z</time>
      </trkpt>
      <trkpt lat="52.10654" lon="6.07284">
        <time>2017-09-22T00:00:03Z</time>
      </trkpt>
      <trkpt lat="52.10652" lon="6.07413">
        <time>2017-09-22T00:00:08Z</time>
      </trkpt>
      <trkpt lat="52.10623" lon="6.07461">
        <time>2017-09-22T00:00:10Z</time>
      </trkpt>
      <trkpt lat="52.10609" lon="6.07473">
        <time>2017-09-22T00:00:11Z</time>
      </trkpt>
      <trkpt lat="52.10595" lon="6.07485">
        <time>2017-09-22T00:00:12Z</time>
      </trkpt>
      <trkpt lat="52.10581" lon="6.07511">
        <time>2017-09-22T00:00:14Z</time>
      </trkpt>
      <trkpt lat="52.10563" lon="6.07553">
        <time>2017-09-22T00:00:16Z</time>
      </trkpt>
      <trkpt lat="52.10559" lon="6.07573">
        <time>2017-09-22T00:00:16Z</time>
      </trkpt>
      <trkpt lat="52.10555" lon="6.07621">
        <time>2017-09-22T00:00:18Z</time>
      </trkpt>
      <trkpt lat="52.10538" lon="6.07703">
        <time>2017-09-22T00:00:22Z</time>
      </trkpt>
      <trkpt lat="52.10533" lon="6.07719">
        <time>2017-09-22T00:00:22Z</time>
      </trkpt>
      <trkpt lat="52.10447" lon="6.07891">
        <time>2017-09-22T00:00:31Z</time>
      </trkpt>
      <trkpt lat="52.10424" lon="6.07918">
        <time>2017-09-22T00:00:32Z</time>
      </trkpt>
      <trkpt lat="52.10392" lon="6.07948">
        <time>2017-09-22T00:00:35Z</time>
      </trkpt>
      <trkpt lat="52.10393" lon="6.07967">
        <time>2017-09-22T00:00:35Z</time>
      </trkpt>
      <trkpt lat="52.104" lon="6.08075">
        <time>2017-09-22T00:00:39Z</time>
      </trkpt>
      <trkpt lat="52.104" lon="6.08075">
        <time>2017-09-22T00:00:39Z</time>
      </trkpt>
      <trkpt lat="52.10407" lon="6.08174">
        <time>2017-09-22T00:00:43Z</time>
      </trkpt>
      <trkpt lat="52.10411" lon="6.08306">
        <time>2017-09-22T00:00:48Z</time>
      </trkpt>
      <trkpt lat="52.10413" lon="6.08333">
        <time>2017-09-22T00:00:49Z</time>
      </trkpt>
      <trkpt lat="52.10421" lon="6.08376">
        <time>2017-09-22T00:00:51Z</time>
      </trkpt>
      <trkpt lat="52.10435" lon="6.08427">
        <time>2017-09-22T00:00:53Z</time>
      </trkpt>
      <trkpt lat="52.10488" lon="6.08563">
        <time>2017-09-22T00:00:59Z</time>
      </trkpt>
      <trkpt lat="52.10498" lon="6.08605">
        <time>2017-09-22T00:01:01Z</time>
      </trkpt>
      <trkpt lat="52.10503" lon="6.08623">
        <time>2017-09-22T00:01:02Z</time>
      </trkpt>
      <trkpt lat="52.10515" lon="6.08651">
        <time>2017-09-22T00:01:03Z</time>
      </trkpt>
      <trkpt lat="52.10546" lon="6.08729">
        <time>2017-09-22T00:01:06Z</time>
      </trkpt>
      <trkpt lat="52.10568" lon="6.08788">
        <time>2017-09-22T00:01:09Z</time>
      </trkpt>
      <trkpt lat="52.10603" lon="6.08881">
        <time>2017-09-22T00:01:13Z</time>
      </trkpt>
      <trkpt lat="52.10667" lon="6.09118">
        <time>2017-09-22T00:01:23Z</time>
      </trkpt>
      <trkpt lat="52.10735" lon="6.0939">
        <time>2017-09-22T00:01:34Z</time>
      </trkpt>
      <trkpt lat="52.10758" lon="6.09477">
        <time>2017-09-22T00:01:38Z</time>
      </trkpt>
      <trkpt lat="52.10768" lon="6.09506">
        <time>2017-09-22T00:01:39Z</time>
      </trkpt>
      <trkpt lat="52.10831" lon="6.09661">
        <time>2017-09-22T00:01:46Z</time>
      </trkpt>
      <trkpt lat="52.1087" lon="6.09763">
        <time>2017-09-22T00:01:50Z</time>
      </trkpt>
      <trkpt lat="52.10904" lon="6.09859">
        <time>2017-09-22T00:01:55Z</time>
      </trkpt>
      <trkpt lat="52.10981" lon="6.10089">
        <time>2017-09-22T00:02:05Z</time>
      </trkpt>
      <trkpt lat="52.11021" lon="6.10219">
        <time>2017-09-22T00:02:10Z</time>
      </trkpt>
      <trkpt lat="52.11059" lon="6.10352">
        <time>2017-09-22T00:02:16Z</time>
      </trkpt>
      <trkpt lat="52.11069" lon="6.10373">
        <time>2017-09-22T00:02:17Z</time>
      </trkpt>
      <trkpt lat="52.11079" lon="6.10381">
        <time>2017-09-22T00:02:17Z</time>
      </trkpt>
      <trkpt lat="52.11085" lon="6.10382">
        <time>2017-09-22T00:02:18Z</time>
      </trkpt>
      <trkpt lat="52.11091" lon="6.10382">
        <time>2017-09-22T00:02:18Z</time>
      </trkpt>
      <trkpt lat="52.11097" lon="6.1038">
        <time>2017-09-22T00:02:18Z</time>
      </trkpt>
      <trkpt lat="52.11114" lon="6.10363">
        <time>2017-09-22T00:02:20Z</time>
      </trkpt>
      <trkpt lat="52.11114" lon="6.10363">
        <time>2017-09-22T00:02:20Z</time>
      </trkpt>
      <trkpt lat="52.1117" lon="6.10301">
        <time>2017-09-22T00:02:24Z</time>
      </trkpt>
      <trkpt lat="52.11198" lon="6.10256">
        <time>2017-09-22T00:02:26Z</time>
      </trkpt>
      <trkpt lat="52.11217" lon="6.10217">
        <time>2017-09-22T00:02:28Z</time>
      </trkpt>
      <trkpt lat="52.11235" lon="6.10185">
        <time>2017-09-22T00:02:30Z</time>
      </trkpt>
      <trkpt lat="52.11253" lon="6.1016">
        <time>2017-09-22T00:02:31Z</time>
      </trkpt>
      <trkpt lat="52.11298" lon="6.10107">
        <time>2017-09-22T00:02:35Z</time>
      </trkpt>
      <trkpt lat="52.11308" lon="6.10102">
        <time>2017-09-22T00:02:35Z</time>
      </trkpt>
      <trkpt lat="52.11321" lon="6.101">
        <time>2017-09-22T00:02:36Z</time>
      </trkpt>
      <trkpt lat="52.11332" lon="6.10107">
        <time>2017-09-22T00:02:37Z</time>
      </trkpt>
      <trkpt lat="52.1134" lon="6.10123">
        <time>2017-09-22T00:02:38Z</time>
      </trkpt>
      <trkpt lat="52.11363" lon="6.10214">
        <time>2017-09-22T00:02:41Z</time>
      </trkpt>
      <trkpt lat="52.11377" lon="6.10257">
        <time>2017-09-22T00:02:43Z</time>
      </trkpt>
      <trkpt lat="52.11386" lon="6.10285">
        <time>2017-09-22T00:02:44Z</time>
      </trkpt>
      <trkpt lat="52.11391" lon="6.10321">
        <time>2017-09-22T00:02:46Z</time>
      </trkpt>
      <trkpt lat="52.11395" lon="6.10381">
        <time>2017-09-22T00:02:48Z</time>
      </trkpt>
      <trkpt lat="52.1139" lon="6.10538">
        <time>2017-09-22T00:02:54Z</time>
      </trkpt>
      <trkpt lat="52.1138" lon="6.10629">
        <time>2017-09-22T00:02:57Z</time>
      </trkpt>
      <trkpt lat="52.11374" lon="6.10689">
        <time>2017-09-22T00:03:00Z</time>
      </trkpt>
      <trkpt lat="52.11374" lon="6.10689">
        <time>2017-09-22T00:03:00Z</time>
      </trkpt>
      <trkpt lat="52.1137" lon="6.10764">
        <time>2017-09-22T00:03:03Z</time>
      </trkpt>
      <trkpt lat="52.11376" lon="6.10956">
        <time>2017-09-22T00:03:10Z</time>
      </trkpt>
      <trkpt lat="52.11377" lon="6.10994">
        <time>2017-09-22T00:03:11Z</time>
      </trkpt>
      <trkpt lat="52.11374" lon="6.11037">
        <time>2017-09-22T00:03:13Z</time>
      </trkpt>
      <trkpt lat="52.11348" lon="6.11211">
        <time>2017-09-22T00:03:20Z</time>
      </trkpt>
      <trkpt lat="52.11341" lon="6.11253">
        <time>2017-09-22T00:03:21Z</time>
      </trkpt>
      <trkpt lat="52.1134" lon="6.11286">
        <time>2017-09-22T00:03:23Z</time>
      </trkpt>
      <trkpt lat="52.11342" lon="6.11307">
        <time>2017-09-22T00:03:23Z</time>
      </trkpt>
      <trkpt lat="52.1136" lon="6.11426">
        <time>2017-09-22T00:03:28Z</time>
      </trkpt>
      <trkpt lat="52.11391" lon="6.11641">
        <time>2017-09-22T00:03:36Z</time>
      </trkpt>
      <trkpt lat="52.1147" lon="6.12199">
        <time>2017-09-22T00:03:58Z</time>
      </trkpt>
      <trkpt lat="52.11607" lon="6.13145">
        <time>2017-09-22T00:04:35Z</time>
      </trkpt>
      <trkpt lat="52.11657" lon="6.13522">
        <time>2017-09-22T00:04:49Z</time>
      </trkpt>
      <trkpt lat="52.11681" lon="6.13709">
        <time>2017-09-22T00:04:57Z</time>
      </trkpt>
      <trkpt lat="52.11688" lon="6.13763">
        <time>2017-09-22T00:04:59Z</time>
      </trkpt>
      <trkpt lat="52.11698" lon="6.13804">
        <time>2017-09-22T00:05:00Z</time>
      </trkpt>
      <trkpt lat="52.11701" lon="6.13864">
        <time>2017-09-22T00:05:03Z</time>
      </trkpt>
      <trkpt lat="52.11699" lon="6.13915">
        <time>2017-09-22T00:05:05Z</time>
      </trkpt>
      <trkpt lat="52.11701" lon="6.1395">
        <time>2017-09-22T00:05:06Z</time>
      </trkpt>
      <trkpt lat="52.11716" lon="6.14086">
        <time>2017-09-22T00:05:11Z</time>
      </trkpt>
      <trkpt lat="52.11723" lon="6.14134">
        <time>2017-09-22T00:05:13Z</time>
      </trkpt>
      <trkpt lat="52.11723" lon="6.14151">
        <time>2017-09-22T00:05:14Z</time>
      </trkpt>
      <trkpt lat="52.11721" lon="6.14158">
        <time>2017-09-22T00:05:14Z</time>
      </trkpt>
      <trkpt lat="52.11717" lon="6.14166">
        <time>2017-09-22T00:05:14Z</time>
      </trkpt>
      <trkpt lat="52.11709" lon="6.14175">
        <time>2017-09-22T00:05:15Z</time>
      </trkpt>
      <trkpt lat="52.117" lon="6.14177">
        <time>2017-09-22T00:05:15Z</time>
      </trkpt>
      <trkpt lat="52.11693" lon="6.14176">
        <time>2017-09-22T00:05:16Z</time>
      </trkpt>
      <trkpt lat="52.11673" lon="6.14178">
        <time>2017-09-22T00:05:17Z</time>
      </trkpt>
      <trkpt lat="52.11621" lon="6.14194">
        <time>2017-09-22T00:05:20Z</time>
      </trkpt>
      <trkpt lat="52.11593" lon="6.14203">
        <time>2017-09-22T00:05:22Z</time>
      </trkpt>
      <trkpt lat="52.11593" lon="6.14203">
        <time>2017-09-22T00:05:22Z</time>
      </trkpt>
      <trkpt lat="52.11539" lon="6.14222">
        <time>2017-09-22T00:05:26Z</time>
      </trkpt>
      <trkpt lat="52.1147" lon="6.14248">
        <time>2017-09-22T00:05:30Z</time>
      </trkpt>
      <trkpt lat="52.11454" lon="6.14252">
        <time>2017-09-22T00:05:31Z</time>
      </trkpt>
      <trkpt lat="52.11396" lon="6.14277">
        <time>2017-09-22T00:05:35Z</time>
      </trkpt>
      <trkpt lat="52.1135" lon="6.14302">
        <time>2017-09-22T00:05:38Z</time>
      </trkpt>
      <trkpt lat="52.11291" lon="6.14332">
        <time>2017-09-22T00:05:41Z</time>
      </trkpt>
      <trkpt lat="52.11315" lon="6.14425">
        <time>2017-09-22T00:05:45Z</time>
      </trkpt>
      <trkpt lat="52.11323" lon="6.14451">
        <time>2017-09-22T00:05:46Z</time>
      </trkpt>
      <trkpt lat="52.11323" lon="6.14451">
        <time>2017-09-22T00:05:46Z</time>
      </trkpt>
      <trkpt lat="52.11361" lon="6.14595">
        <time>2017-09-22T00:05:52Z</time>
      </trkpt>
      <trkpt lat="52.11372" lon="6.14638">
        <time>2017-09-22T00:05:54Z</time>
      </trkpt>
      <trkpt lat="52.11381" lon="6.14666">
        <time>2017-09-22T00:05:55Z</time>
      </trkpt>
      <trkpt lat="52.11437" lon="6.14851">
        <time>2017-09-22T00:06:03Z</time>
      </trkpt>
      <trkpt lat="52.11459" lon="6.14925">
        <time>2017-09-22T00:06:06Z</time>
      </trkpt>
      <trkpt lat="52.11472" lon="6.14952">
        <time>2017-09-22T00:06:07Z</time>
      </trkpt>
      <trkpt lat="52.11478" lon="6.14966">
        <time>2017-09-22T00:06:08Z</time>
      </trkpt>
      <trkpt lat="52.11518" lon="6.15074">
        <time>2017-09-22T00:06:13Z</time>
      </trkpt>
      <trkpt lat="52.1153" lon="6.15116">
        <time>2017-09-22T00:06:15Z</time>
      </trkpt>
      <trkpt lat="52.11535" lon="6.15164">
        <time>2017-09-22T00:06:16Z</time>
      </trkpt>
      <trkpt lat="52.11545" lon="6.15433">
        <time>2017-09-22T00:06:27Z</time>
      </trkpt>
      <trkpt lat="52.11544" lon="6.15495">
        <time>2017-09-22T00:06:29Z</time>
      </trkpt>
      <trkpt lat="52.11538" lon="6.15582">
        <time>2017-09-22T00:06:32Z</time>
      </trkpt>
      <trkpt lat="52.11521" lon="6.15698">
        <time>2017-09-22T00:06:37Z</time>
      </trkpt>
      <trkpt lat="52.1152" lon="6.15725">
        <time>2017-09-22T00:06:38Z</time>
      </trkpt>
      <trkpt lat="52.11525" lon="6.15771">
        <time>2017-09-22T00:06:40Z</time>
      </trkpt>
      <trkpt lat="52.11539" lon="6.15863">
        <time>2017-09-22T00:06:43Z</time>
      </trkpt>
      <trkpt lat="52.11546" lon="6.15914">
        <time>2017-09-22T00:06:45Z</time>
      </trkpt>
      <trkpt lat="52.11551" lon="6.15968">
        <time>2017-09-22T00:06:47Z</time>
      </trkpt>
      <trkpt lat="52.11556" lon="6.16184">
        <time>2017-09-22T00:06:55Z</time>
      </trkpt>
      <trkpt lat="52.11558" lon="6.16215">
        <time>2017-09-22T00:06:57Z</time>
      </trkpt>
      <trkpt lat="52.11569" lon="6.16213">
        <time>2017-09-22T00:06:57Z</time>
      </trkpt>
      <trkpt lat="52.11583" lon="6.16212">
        <time>2017-09-22T00:06:58Z</time>
      </trkpt>
      <trkpt lat="52.11594" lon="6.16214">
        <time>2017-09-22T00:06:59Z</time>
      </trkpt>
      <trkpt lat="52.11604" lon="6.16217">
        <time>2017-09-22T00:06:59Z</time>
      </trkpt>
      <trkpt lat="52.11615" lon="6.16226">
        <time>2017-09-22T00:07:00Z</time>
      </trkpt>
      <trkpt lat="52.11615" lon="6.16226">
        <time>2017-09-22T00:07:00Z</time>
      </trkpt>
      <trkpt lat="52.11816" lon="6.16378">
        <time>2017-09-22T00:07:14Z</time>
      </trkpt>
      <trkpt lat="52.11865" lon="6.16407">
        <time>2017-09-22T00:07:17Z</time>
      </trkpt>
      <trkpt lat="52.11883" lon="6.1642">
        <time>2017-09-22T00:07:18Z</time>
      </trkpt>
      <trkpt lat="52.11903" lon="6.16444">
        <time>2017-09-22T00:07:20Z</time>
      </trkpt>
      <trkpt lat="52.11955" lon="6.1657">
        <time>2017-09-22T00:07:25Z</time>
      </trkpt>
      <trkpt lat="52.11985" lon="6.16634">
        <time>2017-09-22T00:07:29Z</time>
      </trkpt>
      <trkpt lat="52.12019" lon="6.16707">
        <time>2017-09-22T00:07:32Z</time>
      </trkpt>
      <trkpt lat="52.12101" lon="6.17002">
        <time>2017-09-22T00:07:44Z</time>
      </trkpt>
      <trkpt lat="52.12124" lon="6.17063">
        <time>2017-09-22T00:07:47Z</time>
      </trkpt>
      <trkpt lat="52.12133" lon="6.17077">
        <time>2017-09-22T00:07:48Z</time>
      </trkpt>
      <trkpt lat="52.12223" lon="6.17201">
        <time>2017-09-22T00:07:55Z</time>
      </trkpt>
      <trkpt lat="52.12232" lon="6.17217">
        <time>2017-09-22T00:07:56Z</time>
      </trkpt>
      <trkpt lat="52.12249" lon="6.17261">
        <time>2017-09-22T00:07:58Z</time>
      </trkpt>
      <trkpt lat="52.12247" lon="6.17286">
        <time>2017-09-22T00:07:59Z</time>
      </trkpt>
      <trkpt lat="52.12243" lon="6.17327">
        <time>2017-09-22T00:08:00Z</time>
      </trkpt>
      <trkpt lat="52.12233" lon="6.17402">
        <time>2017-09-22T00:08:03Z</time>
      </trkpt>
      <trkpt lat="52.12227" lon="6.17418">
        <time>2017-09-22T00:08:04Z</time>
      </trkpt>
      <trkpt lat="52.12216" lon="6.17426">
        <time>2017-09-22T00:08:05Z</time>
      </trkpt>
      <trkpt lat="52.12211" lon="6.17428">
        <time>2017-09-22T00:08:05Z</time>
      </trkpt>
      <trkpt lat="52.12078" lon="6.17391">
        <time>2017-09-22T00:08:13Z</time>
      </trkpt>
      <trkpt lat="52.12053" lon="6.17394">
        <time>2017-09-22T00:08:15Z</time>
      </trkpt>
      <trkpt lat="52.12017" lon="6.1741">
        <time>2017-09-22T00:08:17Z</time>
      </trkpt>
      <trkpt lat="52.11973" lon="6.17438">
        <time>2017-09-22T00:08:20Z</time>
      </trkpt>
      <trkpt lat="52.11973" lon="6.17438">
        <time>2017-09-22T00:08:20Z</time>
      </trkpt>
      <trkpt lat="52.11894" lon="6.17497">
        <time>2017-09-22T00:08:25Z</time>
      </trkpt>
      <trkpt lat="52.11871" lon="6.17515">
        <time>2017-09-22T00:08:27Z</time>
      </trkpt>
      <trkpt lat="52.11852" lon="6.17534">
        <time>2017-09-22T00:08:28Z</time>
      </trkpt>
      <trkpt lat="52.11833" lon="6.1757">
        <time>2017-09-22T00:08:30Z</time>
      </trkpt>
      <trkpt lat="52.11826" lon="6.17597">
        <time>2017-09-22T00:08:31Z</time>
      </trkpt>
      <trkpt lat="52.11798" lon="6.17876">
        <time>2017-09-22T00:08:42Z</time>
      </trkpt>
      <trkpt lat="52.11792" lon="6.17975">
        <time>2017-09-22T00:08:46Z</time>
      </trkpt>
      <trkpt lat="52.11793" lon="6.18003">
        <time>2017-09-22T00:08:47Z</time>
      </trkpt>
      <trkpt lat="52.11796" lon="6.18028">
        <time>2017-09-22T00:08:48Z</time>
      </trkpt>
      <trkpt lat="52.11817" lon="6.18136">
        <time>2017-09-22T00:08:52Z</time>
      </trkpt>
      <trkpt lat="52.11815" lon="6.18167">
        <time>2017-09-22T00:08:53Z</time>
      </trkpt>
      <trkpt lat="52.11805" lon="6.18198">
        <time>2017-09-22T00:08:54Z</time>
      </trkpt>
      <trkpt lat="52.11795" lon="6.18216">
        <time>2017-09-22T00:08:55Z</time>
      </trkpt>
      <trkpt lat="52.11767" lon="6.18234">
        <time>2017-09-22T00:08:57Z</time>
      </trkpt>
      <trkpt lat="52.11762" lon="6.18236">
        <time>2017-09-22T00:08:58Z</time>
      </trkpt>
      <trkpt lat="52.11716" lon="6.1826">
        <time>2017-09-22T00:09:01Z</time>
      </trkpt>
      <trkpt lat="52.11627" lon="6.18312">
        <time>2017-09-22T00:09:06Z</time>
      </trkpt>
      <trkpt lat="52.11591" lon="6.18329">
        <time>2017-09-22T00:09:09Z</time>
      </trkpt>
      <trkpt lat="52.1157" lon="6.18335">
        <time>2017-09-22T00:09:10Z</time>
      </trkpt>
      <trkpt lat="52.11499" lon="6.18316">
        <time>2017-09-22T00:09:14Z</time>
      </trkpt>
      <trkpt lat="52.11431" lon="6.18295">
        <time>2017-09-22T00:09:19Z</time>
      </trkpt>
      <trkpt lat="52.11385" lon="6.18286">
        <time>2017-09-22T00:09:22Z</time>
      </trkpt>
      <trkpt lat="52.11318" lon="6.18282">
        <time>2017-09-22T00:09:26Z</time>
      </trkpt>
      <trkpt lat="52.11242" lon="6.18293">
        <time>2017-09-22T00:09:30Z</time>
      </trkpt>
      <trkpt lat="52.11202" lon="6.18285">
        <time>2017-09-22T00:09:33Z</time>
      </trkpt>
      <trkpt lat="52.11153" lon="6.18269">
        <time>2017-09-22T00:09:36Z</time>
      </trkpt>
      <trkpt lat="52.11112" lon="6.18263">
        <time>2017-09-22T00:09:38Z</time>
      </trkpt>
      <trkpt lat="52.11084" lon="6.18267">
        <time>2017-09-22T00:09:40Z</time>
      </trkpt>
      <trkpt lat="52.11059" lon="6.18273">
        <time>2017-09-22T00:09:42Z</time>
      </trkpt>
      <trkpt lat="52.11012" lon="6.18287">
        <time>2017-09-22T00:09:45Z</time>
      </trkpt>
      <trkpt lat="52.10925" lon="6.18293">
        <time>2017-09-22T00:09:50Z</time>
      </trkpt>
      <trkpt lat="52.10861" lon="6.18293">
        <time>2017-09-22T00:09:54Z</time>
      </trkpt>
      <trkpt lat="52.10768" lon="6.18267">
        <time>2017-09-22T00:10:00Z</time>
      </trkpt>
      <trkpt lat="52.10692" lon="6.18235">
        <time>2017-09-22T00:10:05Z</time>
      </trkpt>
      <trkpt lat="52.1063" lon="6.18217">
        <time>2017-09-22T00:10:08Z</time>
      </trkpt>
      <trkpt lat="52.10567" lon="6.18194">
        <time>2017-09-22T00:10:12Z</time>
      </trkpt>
      <trkpt lat="52.10545" lon="6.18192">
        <time>2017-09-22T00:10:14Z</time>
      </trkpt>
      <trkpt lat="52.10529" lon="6.18191">
        <time>2017-09-22T00:10:15Z</time>
      </trkpt>
      <trkpt lat="52.10496" lon="6.18207">
        <time>2017-09-22T00:10:17Z</time>
      </trkpt>
      <trkpt lat="52.10442" lon="6.18246">
        <time>2017-09-22T00:10:21Z</time>
      </trkpt>
      <trkpt lat="52.10319" lon="6.18208">
        <time>2017-09-22T00:10:28Z</time>
      </trkpt>
      <trkpt lat="52.10293" lon="6.18197">
        <time>2017-09-22T00:10:30Z</time>
      </trkpt>
      <trkpt lat="52.10274" lon="6.18185">
        <time>2017-09-22T00:10:31Z</time>
      </trkpt>
      <trkpt lat="52.10248" lon="6.1816">
        <time>2017-09-22T00:10:33Z</time>
      </trkpt>
      <trkpt lat="52.10232" lon="6.18141">
        <time>2017-09-22T00:10:34Z</time>
      </trkpt>
      <trkpt lat="52.10213" lon="6.18109">
        <time>2017-09-22T00:10:36Z</time>
      </trkpt>
      <trkpt lat="52.10164" lon="6.18006">
        <time>2017-09-22T00:10:41Z</time>
      </trkpt>
      <trkpt lat="52.1015" lon="6.17981">
        <time>2017-09-22T00:10:42Z</time>
      </trkpt>
      <trkpt lat="52.10136" lon="6.17958">
        <time>2017-09-22T00:10:43Z</time>
      </trkpt>
      <trkpt lat="52.10103" lon="6.17916">
        <time>2017-09-22T00:10:46Z</time>
      </trkpt>
      <trkpt lat="52.10009" lon="6.17843">
        <time>2017-09-22T00:10:52Z</time>
      </trkpt>
      <trkpt lat="52.09931" lon="6.1778">
        <time>2017-09-22T00:10:58Z</time>
      </trkpt>
      <trkpt lat="52.0991" lon="6.17755">
        <time>2017-09-22T00:10:59Z</time>
      </trkpt>
      <trkpt lat="52.09789" lon="6.17582">
        <time>2017-09-22T00:11:09Z</time>
      </trkpt>
      <trkpt lat="52.09698" lon="6.1746">
        <time>2017-09-22T00:11:16Z</time>
      </trkpt>
      <trkpt lat="52.09515" lon="6.17238">
        <time>2017-09-22T00:11:31Z</time>
      </trkpt>
      <trkpt lat="52.09363" lon="6.17008">
        <time>2017-09-22T00:11:43Z</time>
      </trkpt>
      <trkpt lat="52.09323" lon="6.16937">
        <time>2017-09-22T00:11:47Z</time>
      </trkpt>
      <trkpt lat="52.0924" lon="6.16766">
        <time>2017-09-22T00:11:55Z</time>
      </trkpt>
      <trkpt lat="52.09157" lon="6.16609">
        <time>2017-09-22T00:12:03Z</time>
      </trkpt>
      <trkpt lat="52.09143" lon="6.16579">
        <time>2017-09-22T00:12:04Z</time>
      </trkpt>
      <trkpt lat="52.0913" lon="6.16536">
        <time>2017-09-22T00:12:06Z</time>
      </trkpt>
      <trkpt lat="52.09123" lon="6.16485">
        <time>2017-09-22T00:12:08Z</time>
      </trkpt>
      <trkpt lat="52.09122" lon="6.16453">
        <time>2017-09-22T00:12:09Z</time>
      </trkpt>
      <trkpt lat="52.09105" lon="6.16448">
        <time>2017-09-22T00:12:11Z</time>
      </trkpt>
      <trkpt lat="52.0909" lon="6.16433">
        <time>2017-09-22T00:12:12Z</time>
      </trkpt>
      <trkpt lat="52.09078" lon="6.1642">
        <time>2017-09-22T00:12:13Z</time>
      </trkpt>
      <trkpt lat="52.09062" lon="6.1641">
        <time>2017-09-22T00:12:14Z</time>
      </trkpt>
      <trkpt lat="52.08969" lon="6.16371">
        <time>2017-09-22T00:12:19Z</time>
      </trkpt>
      <trkpt lat="52.08885" lon="6.16334">
        <time>2017-09-22T00:12:25Z</time>
      </trkpt>
      <trkpt lat="52.088" lon="6.16301">
        <time>2017-09-22T00:12:30Z</time>
      </trkpt>
      <trkpt lat="52.08773" lon="6.16287">
        <time>2017-09-22T00:12:32Z</time>
      </trkpt>
      <trkpt lat="52.08747" lon="6.1627">
        <time>2017-09-22T00:12:34Z</time>
      </trkpt>
      <trkpt lat="52.08688" lon="6.16226">
        <time>2017-09-22T00:12:38Z</time>
      </trkpt>
      <trkpt lat="52.08623" lon="6.16171">
        <time>2017-09-22T00:12:42Z</time>
      </trkpt>
      <trkpt lat="52.08554" lon="6.16106">
        <time>2017-09-22T00:12:47Z</time>
      </trkpt>
      <trkpt lat="52.08527" lon="6.1608">
        <time>2017-09-22T00:12:49Z</time>
      </trkpt>
      <trkpt lat="52.08517" lon="6.1609">
        <time>2017-09-22T00:12:50Z</time>
      </trkpt>
      <trkpt lat="52.08466" lon="6.16167">
        <time>2017-09-22T00:12:54Z</time>
      </trkpt>
      <trkpt lat="52.08466" lon="6.16167">
        <time>2017-09-22T00:12:54Z</time>
      </trkpt>
      <trkpt lat="52.08253" lon="6.16491">
        <time>2017-09-22T00:13:12Z</time>
      </trkpt>
      <trkpt lat="52.08163" lon="6.16648">
        <time>2017-09-22T00:13:20Z</time>
      </trkpt>
      <trkpt lat="52.0812" lon="6.16736">
        <time>2017-09-22T00:13:24Z</time>
      </trkpt>
      <trkpt lat="52.08095" lon="6.16798">
        <time>2017-09-22T00:13:27Z</time>
      </trkpt>
      <trkpt lat="52.08094" lon="6.16813">
        <time>2017-09-22T00:13:28Z</time>
      </trkpt>
      <trkpt lat="52.08101" lon="6.16832">
        <time>2017-09-22T00:13:29Z</time>
      </trkpt>
      <trkpt lat="52.0812" lon="6.16862">
        <time>2017-09-22T00:13:30Z</time>
      </trkpt>
      <trkpt lat="52.08159" lon="6.16919">
        <time>2017-09-22T00:13:33Z</time>
      </trkpt>
      <trkpt lat="52.08231" lon="6.17031">
        <time>2017-09-22T00:13:40Z</time>
      </trkpt>
      <trkpt lat="52.08242" lon="6.17056">
        <time>2017-09-22T00:13:41Z</time>
      </trkpt>
      <trkpt lat="52.08247" lon="6.17074">
        <time>2017-09-22T00:13:42Z</time>
      </trkpt>
      <trkpt lat="52.08248" lon="6.17093">
        <time>2017-09-22T00:13:42Z</time>
      </trkpt>
      <trkpt lat="52.08249" lon="6.1714">
        <time>2017-09-22T00:13:44Z</time>
      </trkpt>
      <trkpt lat="52.08247" lon="6.17177">
        <time>2017-09-22T00:13:45Z</time>
      </trkpt>
      <trkpt lat="52.08242" lon="6.17209">
        <time>2017-09-22T00:13:47Z</time>
      </trkpt>
      <trkpt lat="52.0823" lon="6.1724">
        <time>2017-09-22T00:13:48Z</time>
      </trkpt>
      <trkpt lat="52.08214" lon="6.17264">
        <time>2017-09-22T00:13:49Z</time>
      </trkpt>
      <trkpt lat="52.082" lon="6.17278">
        <time>2017-09-22T00:13:50Z</time>
      </trkpt>
      <trkpt lat="52.0819" lon="6.17282">
        <time>2017-09-22T00:13:51Z</time>
      </trkpt>
      <trkpt lat="52.08158" lon="6.17281">
        <time>2017-09-22T00:13:53Z</time>
      </trkpt>
      <trkpt lat="52.08141" lon="6.17286">
        <time>2017-09-22T00:13:54Z</time>
      </trkpt>
      <trkpt lat="52.08126" lon="6.17287">
        <time>2017-09-22T00:13:55Z</time>
      </trkpt>
      <trkpt lat="52.08114" lon="6.17284">
        <time>2017-09-22T00:13:56Z</time>
      </trkpt>
      <trkpt lat="52.081" lon="6.17275">
        <time>2017-09-22T00:13:57Z</time>
      </trkpt>
      <trkpt lat="52.08083" lon="6.17258">
        <time>2017-09-22T00:13:58Z</time>
      </trkpt>
      <trkpt lat="52.08055" lon="6.17258">
        <time>2017-09-22T00:14:00Z</time>
      </trkpt>
      <trkpt lat="52.08017" lon="6.1726">
        <time>2017-09-22T00:14:02Z</time>
      </trkpt>
      <trkpt lat="52.07997" lon="6.1727">
        <time>2017-09-22T00:14:03Z</time>
      </trkpt>
      <trkpt lat="52.07992" lon="6.17276">
        <time>2017-09-22T00:14:04Z</time>
      </trkpt>
      <trkpt lat="52.07981" lon="6.17306">
        <time>2017-09-22T00:14:05Z</time>
      </trkpt>
      <trkpt lat="52.07954" lon="6.17385">
        <time>2017-09-22T00:14:08Z</time>
      </trkpt>
      <trkpt lat="52.07954" lon="6.17385">
        <time>2017-09-22T00:14:08Z</time>
      </trkpt>
      <trkpt lat="52.07863" lon="6.17648">
        <time>2017-09-22T00:14:20Z</time>
      </trkpt>
      <trkpt lat="52.07813" lon="6.17791">
        <time>2017-09-22T00:14:26Z</time>
      </trkpt>
      <trkpt lat="52.07797" lon="6.17807">
        <time>2017-09-22T00:14:27Z</time>
      </trkpt>
      <trkpt lat="52.07777" lon="6.17817">
        <time>2017-09-22T00:14:28Z</time>
      </trkpt>
      <trkpt lat="52.07761" lon="6.1782">
        <time>2017-09-22T00:14:29Z</time>
      </trkpt>
      <trkpt lat="52.07739" lon="6.17816">
        <time>2017-09-22T00:14:31Z</time>
      </trkpt>
      <trkpt lat="52.07706" lon="6.17809">
        <time>2017-09-22T00:14:33Z</time>
      </trkpt>
      <trkpt lat="52.07698" lon="6.17813">
        <time>2017-09-22T00:14:33Z</time>
      </trkpt>
      <trkpt lat="52.07689" lon="6.17825">
        <time>2017-09-22T00:14:34Z</time>
      </trkpt>
      <trkpt lat="52.07685" lon="6.17837">
        <time>2017-09-22T00:14:35Z</time>
      </trkpt>
      <trkpt lat="52.07671" lon="6.17893">
        <time>2017-09-22T00:14:37Z</time>
      </trkpt>
      <trkpt lat="52.07655" lon="6.17932">
        <time>2017-09-22T00:14:39Z</time>
      </trkpt>
      <trkpt lat="52.0763" lon="6.17926">
        <time>2017-09-22T00:14:40Z</time>
      </trkpt>
      <trkpt lat="52.07605" lon="6.17918">
        <time>2017-09-22T00:14:42Z</time>
      </trkpt>
      <trkpt lat="52.07601" lon="6.17937">
        <time>2017-09-22T00:14:43Z</time>
      </trkpt>
      <trkpt lat="52.07596" lon="6.17968">
        <time>2017-09-22T00:14:44Z</time>
      </trkpt>
      <trkpt lat="52.07589" lon="6.18005">
        <time>2017-09-22T00:14:45Z</time>
      </trkpt>
      <trkpt lat="52.07559" lon="6.18084">
        <time>2017-09-22T00:14:49Z</time>
      </trkpt>
      <trkpt lat="52.0755" lon="6.18155">
        <time>2017-09-22T00:14:51Z</time>
      </trkpt>
      <trkpt lat="52.07549" lon="6.18208">
        <time>2017-09-22T00:14:54Z</time>
      </trkpt>
      <trkpt lat="52.07551" lon="6.1827">
        <time>2017-09-22T00:14:56Z</time>
      </trkpt>
      <trkpt lat="52.07552" lon="6.18338">
        <time>2017-09-22T00:14:58Z</time>
      </trkpt>
      <trkpt lat="52.07547" lon="6.1838">
        <time>2017-09-22T00:15:00Z</time>
      </trkpt>
      <trkpt lat="52.07514" lon="6.18526">
        <time>2017-09-22T00:15:06Z</time>
      </trkpt>
      <trkpt lat="52.07514" lon="6.18526">
        <time>2017-09-22T00:15:06Z</time>
      </trkpt>
      <trkpt lat="52.0748" lon="6.18667">
        <time>2017-09-22T00:15:12Z</time>
      </trkpt>
      <trkpt lat="52.07458" lon="6.1879">
        <time>2017-09-22T00:15:17Z</time>
      </trkpt>
      <trkpt lat="52.07459" lon="6.18823">
        <time>2017-09-22T00:15:18Z</time>
      </trkpt>
      <trkpt lat="52.07468" lon="6.18889">
        <time>2017-09-22T00:15:20Z</time>
      </trkpt>
      <trkpt lat="52.07487" lon="6.18977">
        <time>2017-09-22T00:15:24Z</time>
      </trkpt>
      <trkpt lat="52.07491" lon="6.19014">
        <time>2017-09-22T00:15:25Z</time>
      </trkpt>
      <trkpt lat="52.07492" lon="6.19046">
        <time>2017-09-22T00:15:26Z</time>
      </trkpt>
      <trkpt lat="52.07477" lon="6.19123">
        <time>2017-09-22T00:15:30Z</time>
      </trkpt>
      <trkpt lat="52.07407" lon="6.194">
        <time>2017-09-22T00:15:41Z</time>
      </trkpt>
      <trkpt lat="52.07406" lon="6.19432">
        <time>2017-09-22T00:15:42Z</time>
      </trkpt>
      <trkpt lat="52.07413" lon="6.19499">
        <time>2017-09-22T00:15:45Z</time>
      </trkpt>
      <trkpt lat="52.0742" lon="6.19536">
        <time>2017-09-22T00:15:46Z</time>
      </trkpt>
      <trkpt lat="52.07431" lon="6.19584">
        <time>2017-09-22T00:15:48Z</time>
      </trkpt>
      <trkpt lat="52.07486" lon="6.19713">
        <time>2017-09-22T00:15:54Z</time>
      </trkpt>
      <trkpt lat="52.07493" lon="6.19755">
        <time>2017-09-22T00:15:56Z</time>
      </trkpt>
      <trkpt lat="52.07492" lon="6.19798">
        <time>2017-09-22T00:15:57Z</time>
      </trkpt>
      <trkpt lat="52.07456" lon="6.20203">
        <time>2017-09-22T00:16:13Z</time>
      </trkpt>
      <trkpt lat="52.07446" lon="6.20301">
        <time>2017-09-22T00:16:17Z</time>
      </trkpt>
      <trkpt lat="52.07436" lon="6.2036">
        <time>2017-09-22T00:16:19Z</time>
      </trkpt>
      <trkpt lat="52.07421" lon="6.20434">
        <time>2017-09-22T00:16:22Z</time>
      </trkpt>
      <trkpt lat="52.07406" lon="6.20487">
        <time>2017-09-22T00:16:24Z</time>
      </trkpt>
      <trkpt lat="52.07369" lon="6.2059">
        <time>2017-09-22T00:16:29Z</time>
      </trkpt>
      <trkpt lat="52.07378" lon="6.20597">
        <time>2017-09-22T00:16:29Z</time>
      </trkpt>
      <trkpt lat="52.0744" lon="6.20609">
        <time>2017-09-22T00:16:33Z</time>
      </trkpt>
      <trkpt lat="52.07531" lon="6.20627">
        <time>2017-09-22T00:16:39Z</time>
      </trkpt>
      <trkpt lat="52.07531" lon="6.20627">
        <time>2017-09-22T00:16:39Z</time>
      </trkpt>
      <trkpt lat="52.07609" lon="6.20643">
        <time>2017-09-22T00:16:43Z</time>
      </trkpt>
      <trkpt lat="52.07778" lon="6.20675">
        <time>2017-09-22T00:16:54Z</time>
      </trkpt>
      <trkpt lat="52.07784" lon="6.20673">
        <time>2017-09-22T00:16:54Z</time>
      </trkpt>
      <trkpt lat="52.07787" lon="6.20668">
        <time>2017-09-22T00:16:55Z</time>
      </trkpt>
      <trkpt lat="52.07843" lon="6.20525">
        <time>2017-09-22T00:17:01Z</time>
      </trkpt>
      <trkpt lat="52.07892" lon="6.20441">
        <time>2017-09-22T00:17:05Z</time>
      </trkpt>
      <trkpt lat="52.08032" lon="6.20248">
        <time>2017-09-22T00:17:17Z</time>
      </trkpt>
      <trkpt lat="52.08075" lon="6.20207">
        <time>2017-09-22T00:17:20Z</time>
      </trkpt>
      <trkpt lat="52.08096" lon="6.20197">
        <time>2017-09-22T00:17:21Z</time>
      </trkpt>
      <trkpt lat="52.08177" lon="6.20164">
        <time>2017-09-22T00:17:26Z</time>
      </trkpt>
      <trkpt lat="52.08249" lon="6.20136">
        <time>2017-09-22T00:17:31Z</time>
      </trkpt>
      <trkpt lat="52.08281" lon="6.20122">
        <time>2017-09-22T00:17:33Z</time>
      </trkpt>
      <trkpt lat="52.08428" lon="6.20005">
        <time>2017-09-22T00:17:43Z</time>
      </trkpt>
      <trkpt lat="52.08505" lon="6.19958">
        <time>2017-09-22T00:17:48Z</time>
      </trkpt>
      <trkpt lat="52.08539" lon="6.19927">
        <time>2017-09-22T00:17:50Z</time>
      </trkpt>
      <trkpt lat="52.08566" lon="6.20028">
        <time>2017-09-22T00:17:55Z</time>
      </trkpt>
      <trkpt lat="52.0858" lon="6.20153">
        <time>2017-09-22T00:17:59Z</time>
      </trkpt>
      <trkpt lat="52.0858" lon="6.20153">
        <time>2017-09-22T00:17:59Z</time>
      </trkpt>
      <trkpt lat="52.08588" lon="6.20219">
        <time>2017-09-22T00:18:02Z</time>
      </trkpt>
      <trkpt lat="52.08665" lon="6.20488">
        <time>2017-09-22T00:18:13Z</time>
      </trkpt>
      <trkpt lat="52.08682" lon="6.20571">
        <time>2017-09-22T00:18:16Z</time>
      </trkpt>
      <trkpt lat="52.08684" lon="6.20592">
        <time>2017-09-22T00:18:17Z</time>
      </trkpt>
      <trkpt lat="52.08687" lon="6.21087">
        <time>2017-09-22T00:18:36Z</time>
      </trkpt>
      <trkpt lat="52.08691" lon="6.21137">
        <time>2017-09-22T00:18:38Z</time>
      </trkpt>
      <trkpt lat="52.08698" lon="6.21184">
        <time>2017-09-22T00:18:40Z</time>
      </trkpt>
      <trkpt lat="52.0874" lon="6.21379">
        <time>2017-09-22T00:18:48Z</time>
      </trkpt>
      <trkpt lat="52.0881" lon="6.21726">
        <time>2017-09-22T00:19:01Z</time>
      </trkpt>
      <trkpt lat="52.0881" lon="6.21759">
        <time>2017-09-22T00:19:03Z</time>
      </trkpt>
      <trkpt lat="52.08802" lon="6.21787">
        <time>2017-09-22T00:19:04Z</time>
      </trkpt>
      <trkpt lat="52.08788" lon="6.21816">
        <time>2017-09-22T00:19:05Z</time>
      </trkpt>
      <trkpt lat="52.08767" lon="6.21852">
        <time>2017-09-22T00:19:07Z</time>
      </trkpt>
      <trkpt lat="52.08733" lon="6.21903">
        <time>2017-09-22T00:19:10Z</time>
      </trkpt>
      <trkpt lat="52.08697" lon="6.22017">
        <time>2017-09-22T00:19:15Z</time>
      </trkpt>
      <trkpt lat="52.08686" lon="6.22062">
        <time>2017-09-22T00:19:17Z</time>
      </trkpt>
      <trkpt lat="52.08686" lon="6.22079">
        <time>2017-09-22T00:19:17Z</time>
      </trkpt>
      <trkpt lat="52.08708" lon="6.22217">
        <time>2017-09-22T00:19:23Z</time>
      </trkpt>
      <trkpt lat="52.08711" lon="6.22235">
        <time>2017-09-22T00:19:23Z</time>
      </trkpt>
      <trkpt lat="52.08726" lon="6.22231">
        <time>2017-09-22T00:19:24Z</time>
      </trkpt>
      <trkpt lat="52.08768" lon="6.22219">
        <time>2017-09-22T00:19:27Z</time>
      </trkpt>
      <trkpt lat="52.08815" lon="6.22199">
        <time>2017-09-22T00:19:30Z</time>
      </trkpt>
      <trkpt lat="52.08854" lon="6.22178">
        <time>2017-09-22T00:19:32Z</time>
      </trkpt>
      <trkpt lat="52.08911" lon="6.22133">
        <time>2017-09-22T00:19:36Z</time>
      </trkpt>
      <trkpt lat="52.08911" lon="6.22133">
        <time>2017-09-22T00:19:36Z</time>
      </trkpt>
      <trkpt lat="52.09076" lon="6.21991">
        <time>2017-09-22T00:19:48Z</time>
      </trkpt>
      <trkpt lat="52.09127" lon="6.21957">
        <time>2017-09-22T00:19:51Z</time>
      </trkpt>
      <trkpt lat="52.09159" lon="6.21941">
        <time>2017-09-22T00:19:53Z</time>
      </trkpt>
      <trkpt lat="52.09195" lon="6.21926">
        <time>2017-09-22T00:19:56Z</time>
      </trkpt>
      <trkpt lat="52.09231" lon="6.21916">
        <time>2017-09-22T00:19:58Z</time>
      </trkpt>
      <trkpt lat="52.09254" lon="6.21911">
        <time>2017-09-22T00:19:59Z</time>
      </trkpt>
      <trkpt lat="52.09285" lon="6.21908">
        <time>2017-09-22T00:20:01Z</time>
      </trkpt>
      <trkpt lat="52.09321" lon="6.21908">
        <time>2017-09-22T00:20:03Z</time>
      </trkpt>
      <trkpt lat="52.09367" lon="6.21913">
        <time>2017-09-22T00:20:06Z</time>
      </trkpt>
      <trkpt lat="52.09427" lon="6.21926">
        <time>2017-09-22T00:20:10Z</time>
      </trkpt>
      <trkpt lat="52.09539" lon="6.21955">
        <time>2017-09-22T00:20:17Z</time>
      </trkpt>
      <trkpt lat="52.09588" lon="6.21964">
        <time>2017-09-22T00:20:20Z</time>
      </trkpt>
      <trkpt lat="52.09627" lon="6.21968">
        <time>2017-09-22T00:20:22Z</time>
      </trkpt>
      <trkpt lat="52.09698" lon="6.21972">
        <time>2017-09-22T00:20:27Z</time>
      </trkpt>
      <trkpt lat="52.09728" lon="6.21973">
        <time>2017-09-22T00:20:29Z</time>
      </trkpt>
      <trkpt lat="52.09726" lon="6.22017">
        <time>2017-09-22T00:20:30Z</time>
      </trkpt>
      <trkpt lat="52.09721" lon="6.22056">
        <time>2017-09-22T00:20:32Z</time>
      </trkpt>
      <trkpt lat="52.09713" lon="6.22103">
        <time>2017-09-22T00:20:34Z</time>
      </trkpt>
      <trkpt lat="52.09716" lon="6.22148">
        <time>2017-09-22T00:20:35Z</time>
      </trkpt>
      <trkpt lat="52.09749" lon="6.22337">
        <time>2017-09-22T00:20:43Z</time>
      </trkpt>
      <trkpt lat="52.09749" lon="6.22337">
        <time>2017-09-22T00:20:43Z</time>
      </trkpt>
      <trkpt lat="52.09755" lon="6.2237">
        <time>2017-09-22T00:20:44Z</time>
      </trkpt>
      <trkpt lat="52.09759" lon="6.22416">
        <time>2017-09-22T00:20:46Z</time>
      </trkpt>
      <trkpt lat="52.09765" lon="6.22522">
        <time>2017-09-22T00:20:50Z</time>
      </trkpt>
      <trkpt lat="52.09734" lon="6.22752">
        <time>2017-09-22T00:20:59Z</time>
      </trkpt>
      <trkpt lat="52.09708" lon="6.22895">
        <time>2017-09-22T00:21:04Z</time>
      </trkpt>
      <trkpt lat="52.09702" lon="6.22916">
        <time>2017-09-22T00:21:05Z</time>
      </trkpt>
      <trkpt lat="52.09562" lon="6.23191">
        <time>2017-09-22T00:21:19Z</time>
      </trkpt>
      <trkpt lat="52.09555" lon="6.23195">
        <time>2017-09-22T00:21:19Z</time>
      </trkpt>
      <trkpt lat="52.0953" lon="6.23196">
        <time>2017-09-22T00:21:21Z</time>
      </trkpt>
      <trkpt lat="52.09362" lon="6.23186">
        <time>2017-09-22T00:21:31Z</time>
      </trkpt>
      <trkpt lat="52.09333" lon="6.23186">
        <time>2017-09-22T00:21:33Z</time>
      </trkpt>
      <trkpt lat="52.09307" lon="6.23191">
        <time>2017-09-22T00:21:34Z</time>
      </trkpt>
      <trkpt lat="52.09293" lon="6.23199">
        <time>2017-09-22T00:21:35Z</time>
      </trkpt>
      <trkpt lat="52.09287" lon="6.23204">
        <time>2017-09-22T00:21:36Z</time>
      </trkpt>
      <trkpt lat="52.09236" lon="6.23299">
        <time>2017-09-22T00:21:41Z</time>
      </trkpt>
      <trkpt lat="52.09182" lon="6.2344">
        <time>2017-09-22T00:21:47Z</time>
      </trkpt>
      <trkpt lat="52.09158" lon="6.23519">
        <time>2017-09-22T00:21:50Z</time>
      </trkpt>
      <trkpt lat="52.09114" lon="6.23687">
        <time>2017-09-22T00:21:57Z</time>
      </trkpt>
      <trkpt lat="52.09059" lon="6.23871">
        <time>2017-09-22T00:22:05Z</time>
      </trkpt>
      <trkpt lat="52.08976" lon="6.24164">
        <time>2017-09-22T00:22:17Z</time>
      </trkpt>
      <trkpt lat="52.08873" lon="6.24538">
        <time>2017-09-22T00:22:33Z</time>
      </trkpt>
      <trkpt lat="52.08844" lon="6.24669">
        <time>2017-09-22T00:22:38Z</time>
      </trkpt>
      <trkpt lat="52.08859" lon="6.24806">
        <time>2017-09-22T00:22:43Z</time>
      </trkpt>
      <trkpt lat="52.08857" lon="6.24958">
        <time>2017-09-22T00:22:49Z</time>
      </trkpt>
      <trkpt lat="52.08863" lon="6.25088">
        <time>2017-09-22T00:22:54Z</time>
      </trkpt>
      <trkpt lat="52.08866" lon="6.25173">
        <time>2017-09-22T00:22:57Z</time>
      </trkpt>
      <trkpt lat="52.08862" lon="6.25244">
        <time>2017-09-22T00:23:00Z</time>
      </trkpt>
      <trkpt lat="52.08838" lon="6.25439">
        <time>2017-09-22T00:23:07Z</time>
      </trkpt>
      <trkpt lat="52.08818" lon="6.25505">
        <time>2017-09-22T00:23:10Z</time>
      </trkpt>
      <trkpt lat="52.08787" lon="6.25549">
        <time>2017-09-22T00:23:13Z</time>
      </trkpt>
      <trkpt lat="52.0879" lon="6.25639">
        <time>2017-09-22T00:23:16Z</time>
      </trkpt>
      <trkpt lat="52.0879" lon="6.25639">
        <time>2017-09-22T00:23:16Z</time>
      </trkpt>
      <trkpt lat="52.08795" lon="6.25816">
        <time>2017-09-22T00:23:23Z</time>
      </trkpt>
      <trkpt lat="52.08801" lon="6.26012">
        <time>2017-09-22T00:23:30Z</time>
      </trkpt>
      <trkpt lat="52.08799" lon="6.26027">
        <time>2017-09-22T00:23:31Z</time>
      </trkpt>
      <trkpt lat="52.08799" lon="6.26069">
        <time>2017-09-22T00:23:32Z</time>
      </trkpt>
      <trkpt lat="52.08794" lon="6.26077">
        <time>2017-09-22T00:23:33Z</time>
      </trkpt>
      <trkpt lat="52.08794" lon="6.26096">
        <time>2017-09-22T00:23:33Z</time>
      </trkpt>
      <trkpt lat="52.08801" lon="6.26102">
        <time>2017-09-22T00:23:34Z</time>
      </trkpt>
      <trkpt lat="52.08805" lon="6.26149">
        <time>2017-09-22T00:23:36Z</time>
      </trkpt>
      <trkpt lat="52.08812" lon="6.26293">
        <time>2017-09-22T00:23:41Z</time>
      </trkpt>
      <trkpt lat="52.08812" lon="6.26293">
        <time>2017-09-22T00:23:41Z</time>
      </trkpt>
      <trkpt lat="52.08821" lon="6.26552">
        <time>2017-09-22T00:23:51Z</time>
      </trkpt>
      <trkpt lat="52.08833" lon="6.26817">
        <time>2017-09-22T00:24:01Z</time>
      </trkpt>
      <trkpt lat="52.08836" lon="6.26859">
        <time>2017-09-22T00:24:03Z</time>
      </trkpt>
      <trkpt lat="52.08847" lon="6.26924">
        <time>2017-09-22T00:24:05Z</time>
      </trkpt>
      <trkpt lat="52.08861" lon="6.26984">
        <time>2017-09-22T00:24:08Z</time>
      </trkpt>
      <trkpt lat="52.08895" lon="6.27066">
        <time>2017-09-22T00:24:11Z</time>
      </trkpt>
      <trkpt lat="52.08911" lon="6.271">
        <time>2017-09-22T00:24:13Z</time>
      </trkpt>
      <trkpt lat="52.08924" lon="6.27121">
        <time>2017-09-22T00:24:14Z</time>
      </trkpt>
      <trkpt lat="52.08952" lon="6.2716">
        <time>2017-09-22T00:24:16Z</time>
      </trkpt>
      <trkpt lat="52.08976" lon="6.27186">
        <time>2017-09-22T00:24:18Z</time>
      </trkpt>
      <trkpt lat="52.09002" lon="6.27211">
        <time>2017-09-22T00:24:20Z</time>
      </trkpt>
      <trkpt lat="52.09057" lon="6.27257">
        <time>2017-09-22T00:24:24Z</time>
      </trkpt>
      <trkpt lat="52.09114" lon="6.27299">
        <time>2017-09-22T00:24:28Z</time>
      </trkpt>
      <trkpt lat="52.09105" lon="6.27375">
        <time>2017-09-22T00:24:31Z</time>
      </trkpt>
      <trkpt lat="52.09096" lon="6.27409">
        <time>2017-09-22T00:24:32Z</time>
      </trkpt>
      <trkpt lat="52.09096" lon="6.27409">
        <time>2017-09-22T00:24:32Z</time>
      </trkpt>
      <trkpt lat="52.08979" lon="6.2773">
        <time>2017-09-22T00:24:46Z</time>
      </trkpt>
      <trkpt lat="52.08942" lon="6.27833">
        <time>2017-09-22T00:24:51Z</time>
      </trkpt>
      <trkpt lat="52.08939" lon="6.27846">
        <time>2017-09-22T00:24:51Z</time>
      </trkpt>
      <trkpt lat="52.08938" lon="6.27876">
        <time>2017-09-22T00:24:52Z</time>
      </trkpt>
      <trkpt lat="52.08978" lon="6.2811">
        <time>2017-09-22T00:25:01Z</time>
      </trkpt>
      <trkpt lat="52.09058" lon="6.28405">
        <time>2017-09-22T00:25:14Z</time>
      </trkpt>
      <trkpt lat="52.09118" lon="6.28605">
        <time>2017-09-22T00:25:22Z</time>
      </trkpt>
      <trkpt lat="52.09206" lon="6.289">
        <time>2017-09-22T00:25:34Z</time>
      </trkpt>
      <trkpt lat="52.09207" lon="6.2893">
        <time>2017-09-22T00:25:36Z</time>
      </trkpt>
      <trkpt lat="52.09134" lon="6.29273">
        <time>2017-09-22T00:25:49Z</time>
      </trkpt>
      <trkpt lat="52.09103" lon="6.29403">
        <time>2017-09-22T00:25:55Z</time>
      </trkpt>
      <trkpt lat="52.09083" lon="6.2945">
        <time>2017-09-22T00:25:57Z</time>
      </trkpt>
      <trkpt lat="52.09066" lon="6.29467">
        <time>2017-09-22T00:25:58Z</time>
      </trkpt>
      <trkpt lat="52.09026" lon="6.29496">
        <time>2017-09-22T00:26:01Z</time>
      </trkpt>
      <trkpt lat="52.09016" lon="6.29502">
        <time>2017-09-22T00:26:01Z</time>
      </trkpt>
      <trkpt lat="52.09005" lon="6.29472">
        <time>2017-09-22T00:26:03Z</time>
      </trkpt>
      <trkpt lat="52.08986" lon="6.29427">
        <time>2017-09-22T00:26:05Z</time>
      </trkpt>
      <trkpt lat="52.08986" lon="6.29427">
        <time>2017-09-22T00:26:05Z</time>
      </trkpt>
      <trkpt lat="52.08976" lon="6.29408">
        <time>2017-09-22T00:26:06Z</time>
      </trkpt>
      <trkpt lat="52.08958" lon="6.29379">
        <time>2017-09-22T00:26:07Z</time>
      </trkpt>
      <trkpt lat="52.08936" lon="6.29365">
        <time>2017-09-22T00:26:09Z</time>
      </trkpt>
      <trkpt lat="52.08908" lon="6.29363">
        <time>2017-09-22T00:26:10Z</time>
      </trkpt>
      <trkpt lat="52.08865" lon="6.29369">
        <time>2017-09-22T00:26:13Z</time>
      </trkpt>
      <trkpt lat="52.08852" lon="6.29368">
        <time>2017-09-22T00:26:14Z</time>
      </trkpt>
      <trkpt lat="52.08837" lon="6.29364">
        <time>2017-09-22T00:26:15Z</time>
      </trkpt>
      <trkpt lat="52.08808" lon="6.2935">
        <time>2017-09-22T00:26:17Z</time>
      </trkpt>
      <trkpt lat="52.08801" lon="6.29344">
        <time>2017-09-22T00:26:17Z</time>
      </trkpt>
      <trkpt lat="52.08765" lon="6.29324">
        <time>2017-09-22T00:26:20Z</time>
      </trkpt>
      <trkpt lat="52.08745" lon="6.29298">
        <time>2017-09-22T00:26:21Z</time>
      </trkpt>
      <trkpt lat="52.08736" lon="6.2929">
        <time>2017-09-22T00:26:22Z</time>
      </trkpt>
      <trkpt lat="52.08723" lon="6.29283">
        <time>2017-09-22T00:26:23Z</time>
      </trkpt>
      <trkpt lat="52.08629" lon="6.29286">
        <time>2017-09-22T00:26:28Z</time>
      </trkpt>
      <trkpt lat="52.08544" lon="6.29286">
        <time>2017-09-22T00:26:34Z</time>
      </trkpt>
      <trkpt lat="52.08522" lon="6.29284">
        <time>2017-09-22T00:26:35Z</time>
      </trkpt>
      <trkpt lat="52.08504" lon="6.29282">
        <time>2017-09-22T00:26:36Z</time>
      </trkpt>
      <trkpt lat="52.08488" lon="6.29276">
        <time>2017-09-22T00:26:37Z</time>
      </trkpt>
      <trkpt lat="52.08473" lon="6.29266">
        <time>2017-09-22T00:26:38Z</time>
      </trkpt>
      <trkpt lat="52.08462" lon="6.29256">
        <time>2017-09-22T00:26:39Z</time>
      </trkpt>
      <trkpt lat="52.0845" lon="6.29229">
        <time>2017-09-22T00:26:40Z</time>
      </trkpt>
      <trkpt lat="52.08438" lon="6.29189">
        <time>2017-09-22T00:26:42Z</time>
      </trkpt>
      <trkpt lat="52.08433" lon="6.29159">
        <time>2017-09-22T00:26:43Z</time>
      </trkpt>
      <trkpt lat="52.08431" lon="6.29132">
        <time>2017-09-22T00:26:44Z</time>
      </trkpt>
      <trkpt lat="52.08431" lon="6.29113">
        <time>2017-09-22T00:26:45Z</time>
      </trkpt>
      <trkpt lat="52.08453" lon="6.28991">
        <time>2017-09-22T00:26:50Z</time>
      </trkpt>
      <trkpt lat="52.08459" lon="6.28943">
        <time>2017-09-22T00:26:51Z</time>
      </trkpt>
      <trkpt lat="52.08441" lon="6.28899">
        <time>2017-09-22T00:26:53Z</time>
      </trkpt>
      <trkpt lat="52.08434" lon="6.28892">
        <time>2017-09-22T00:26:54Z</time>
      </trkpt>
      <trkpt lat="52.08351" lon="6.28846">
        <time>2017-09-22T00:26:59Z</time>
      </trkpt>
      <trkpt lat="52.08306" lon="6.28902">
        <time>2017-09-22T00:27:03Z</time>
      </trkpt>
      <trkpt lat="52.08306" lon="6.28902">
        <time>2017-09-22T00:27:03Z</time>
      </trkpt>
      <trkpt lat="52.0829" lon="6.28923">
        <time>2017-09-22T00:27:04Z</time>
      </trkpt>
      <trkpt lat="52.08256" lon="6.28977">
        <time>2017-09-22T00:27:07Z</time>
      </trkpt>
      <trkpt lat="52.08127" lon="6.2922">
        <time>2017-09-22T00:27:19Z</time>
      </trkpt>
      <trkpt lat="52.08119" lon="6.29242">
        <time>2017-09-22T00:27:20Z</time>
      </trkpt>
      <trkpt lat="52.08103" lon="6.29318">
        <time>2017-09-22T00:27:23Z</time>
      </trkpt>
      <trkpt lat="52.08078" lon="6.29481">
        <time>2017-09-22T00:27:30Z</time>
      </trkpt>
      <trkpt lat="52.08004" lon="6.29456">
        <time>2017-09-22T00:27:34Z</time>
      </trkpt>
      <trkpt lat="52.08004" lon="6.29456">
        <time>2017-09-22T00:27:34Z</time>
      </trkpt>
      <trkpt lat="52.07692" lon="6.29347">
        <time>2017-09-22T00:27:54Z</time>
      </trkpt>
      <trkpt lat="52.07539" lon="6.29283">
        <time>2017-09-22T00:28:04Z</time>
      </trkpt>
      <trkpt lat="52.07521" lon="6.29271">
        <time>2017-09-22T00:28:05Z</time>
      </trkpt>
      <trkpt lat="52.07419" lon="6.29199">
        <time>2017-09-22T00:28:12Z</time>
      </trkpt>
      <trkpt lat="52.07372" lon="6.29166">
        <time>2017-09-22T00:28:15Z</time>
      </trkpt>
      <trkpt lat="52.07323" lon="6.29133">
        <time>2017-09-22T00:28:18Z</time>
      </trkpt>
      <trkpt lat="52.07312" lon="6.29128">
        <time>2017-09-22T00:28:19Z</time>
      </trkpt>
      <trkpt lat="52.07278" lon="6.29119">
        <time>2017-09-22T00:28:21Z</time>
      </trkpt>
      <trkpt lat="52.07171" lon="6.29093">
        <time>2017-09-22T00:28:27Z</time>
      </trkpt>
      <trkpt lat="52.07064" lon="6.29065">
        <time>2017-09-22T00:28:34Z</time>
      </trkpt>
      <trkpt lat="52.0705" lon="6.29163">
        <time>2017-09-22T00:28:38Z</time>
      </trkpt>
      <trkpt lat="52.0705" lon="6.29163">
        <time>2017-09-22T00:28:38Z</time>
      </trkpt>
      <trkpt lat="52.07026" lon="6.29327">
        <time>2017-09-22T00:28:44Z</time>
      </trkpt>
      <trkpt lat="52.06928" lon="6.3">
        <time>2017-09-22T00:29:11Z</time>
      </trkpt>
      <trkpt lat="52.069" lon="6.30172">
        <time>2017-09-22T00:29:17Z</time>
      </trkpt>
      <trkpt lat="52.06894" lon="6.30199">
        <time>2017-09-22T00:29:18Z</time>
      </trkpt>
      <trkpt lat="52.06872" lon="6.30301">
        <time>2017-09-22T00:29:22Z</time>
      </trkpt>
      <trkpt lat="52.0686" lon="6.30365">
        <time>2017-09-22T00:29:25Z</time>
      </trkpt>
      <trkpt lat="52.06858" lon="6.30387">
        <time>2017-09-22T00:29:26Z</time>
      </trkpt>
      <trkpt lat="52.06861" lon="6.3042">
        <time>2017-09-22T00:29:27Z</time>
      </trkpt>
      <trkpt lat="52.06877" lon="6.3054">
        <time>2017-09-22T00:29:32Z</time>
      </trkpt>
      <trkpt lat="52.06881" lon="6.30692">
        <time>2017-09-22T00:29:37Z</time>
      </trkpt>
      <trkpt lat="52.06883" lon="6.30843">
        <time>2017-09-22T00:29:43Z</time>
      </trkpt>
      <trkpt lat="52.06881" lon="6.30867">
        <time>2017-09-22T00:29:44Z</time>
      </trkpt>
      <trkpt lat="52.06873" lon="6.30891">
        <time>2017-09-22T00:29:45Z</time>
      </trkpt>
      <trkpt lat="52.06862" lon="6.30925">
        <time>2017-09-22T00:29:47Z</time>
      </trkpt>
      <trkpt lat="52.06842" lon="6.30961">
        <time>2017-09-22T00:29:48Z</time>
      </trkpt>
      <trkpt lat="52.06804" lon="6.31031">
        <time>2017-09-22T00:29:52Z</time>
      </trkpt>
      <trkpt lat="52.06756" lon="6.31128">
        <time>2017-09-22T00:29:57Z</time>
      </trkpt>
      <trkpt lat="52.06756" lon="6.31128">
        <time>2017-09-22T00:29:57Z</time>
      </trkpt>
      <trkpt lat="52.06681" lon="6.31283">
        <time>2017-09-22T00:30:04Z</time>
      </trkpt>
      <trkpt lat="52.06612" lon="6.31436">
        <time>2017-09-22T00:30:11Z</time>
      </trkpt>
      <trkpt lat="52.06606" lon="6.31453">
        <time>2017-09-22T00:30:12Z</time>
      </trkpt>
      <trkpt lat="52.06599" lon="6.31482">
        <time>2017-09-22T00:30:13Z</time>
      </trkpt>
      <trkpt lat="52.06588" lon="6.31547">
        <time>2017-09-22T00:30:16Z</time>
      </trkpt>
      <trkpt lat="52.06589" lon="6.31603">
        <time>2017-09-22T00:30:18Z</time>
      </trkpt>
      <trkpt lat="52.0659" lon="6.31634">
        <time>2017-09-22T00:30:19Z</time>
      </trkpt>
      <trkpt lat="52.06592" lon="6.31679">
        <time>2017-09-22T00:30:21Z</time>
      </trkpt>
      <trkpt lat="52.06596" lon="6.3176">
        <time>2017-09-22T00:30:24Z</time>
      </trkpt>
      <trkpt lat="52.06594" lon="6.3179">
        <time>2017-09-22T00:30:25Z</time>
      </trkpt>
      <trkpt lat="52.06574" lon="6.31878">
        <time>2017-09-22T00:30:29Z</time>
      </trkpt>
      <trkpt lat="52.06564" lon="6.31928">
        <time>2017-09-22T00:30:31Z</time>
      </trkpt>
      <trkpt lat="52.06558" lon="6.31966">
        <time>2017-09-22T00:30:32Z</time>
      </trkpt>
      <trkpt lat="52.06556" lon="6.31992">
        <time>2017-09-22T00:30:33Z</time>
      </trkpt>
      <trkpt lat="52.06553" lon="6.32039">
        <time>2017-09-22T00:30:35Z</time>
      </trkpt>
      <trkpt lat="52.06548" lon="6.32069">
        <time>2017-09-22T00:30:36Z</time>
      </trkpt>
      <trkpt lat="52.06513" lon="6.32203">
        <time>2017-09-22T00:30:42Z</time>
      </trkpt>
      <trkpt lat="52.06504" lon="6.3223">
        <time>2017-09-22T00:30:43Z</time>
      </trkpt>
      <trkpt lat="52.06494" lon="6.3225">
        <time>2017-09-22T00:30:44Z</time>
      </trkpt>
      <trkpt lat="52.06479" lon="6.32269">
        <time>2017-09-22T00:30:45Z</time>
      </trkpt>
      <trkpt lat="52.06498" lon="6.32309">
        <time>2017-09-22T00:30:47Z</time>
      </trkpt>
      <trkpt lat="52.06511" lon="6.32332">
        <time>2017-09-22T00:30:48Z</time>
      </trkpt>
      <trkpt lat="52.06522" lon="6.32344">
        <time>2017-09-22T00:30:49Z</time>
      </trkpt>
      <trkpt lat="52.06538" lon="6.32356">
        <time>2017-09-22T00:30:50Z</time>
      </trkpt>
      <trkpt lat="52.06538" lon="6.32356">
        <time>2017-09-22T00:30:50Z</time>
      </trkpt>
      <trkpt lat="52.06595" lon="6.32386">
        <time>2017-09-22T00:30:54Z</time>
      </trkpt>
      <trkpt lat="52.06609" lon="6.32394">
        <time>2017-09-22T00:30:54Z</time>
      </trkpt>
      <trkpt lat="52.06624" lon="6.32406">
        <time>2017-09-22T00:30:55Z</time>
      </trkpt>
      <trkpt lat="52.06663" lon="6.32458">
        <time>2017-09-22T00:30:59Z</time>
      </trkpt>
      <trkpt lat="52.06681" lon="6.32478">
        <time>2017-09-22T00:31:00Z</time>
      </trkpt>
      <trkpt lat="52.06711" lon="6.32502">
        <time>2017-09-22T00:31:02Z</time>
      </trkpt>
      <trkpt lat="52.0672" lon="6.32507">
        <time>2017-09-22T00:31:03Z</time>
      </trkpt>
      <trkpt lat="52.0674" lon="6.3251">
        <time>2017-09-22T00:31:04Z</time>
      </trkpt>
      <trkpt lat="52.0678" lon="6.32501">
        <time>2017-09-22T00:31:06Z</time>
      </trkpt>
      <trkpt lat="52.06896" lon="6.32467">
        <time>2017-09-22T00:31:14Z</time>
      </trkpt>
      <trkpt lat="52.07027" lon="6.3243">
        <time>2017-09-22T00:31:22Z</time>
      </trkpt>
      <trkpt lat="52.07016" lon="6.32564">
        <time>2017-09-22T00:31:27Z</time>
      </trkpt>
      <trkpt lat="52.07016" lon="6.32564">
        <time>2017-09-22T00:31:27Z</time>
      </trkpt>
      <trkpt lat="52.07013" lon="6.32614">
        <time>2017-09-22T00:31:29Z</time>
      </trkpt>
      <trkpt lat="52.07014" lon="6.32635">
        <time>2017-09-22T00:31:30Z</time>
      </trkpt>
      <trkpt lat="52.07023" lon="6.32686">
        <time>2017-09-22T00:31:32Z</time>
      </trkpt>
      <trkpt lat="52.07059" lon="6.3295">
        <time>2017-09-22T00:31:42Z</time>
      </trkpt>
      <trkpt lat="52.0706" lon="6.32976">
        <time>2017-09-22T00:31:43Z</time>
      </trkpt>
      <trkpt lat="52.0706" lon="6.32991">
        <time>2017-09-22T00:31:43Z</time>
      </trkpt>
      <trkpt lat="52.07022" lon="6.33213">
        <time>2017-09-22T00:31:52Z</time>
      </trkpt>
      <trkpt lat="52.07019" lon="6.33244">
        <time>2017-09-22T00:31:53Z</time>
      </trkpt>
      <trkpt lat="52.07018" lon="6.33283">
        <time>2017-09-22T00:31:55Z</time>
      </trkpt>
      <trkpt lat="52.07018" lon="6.33347">
        <time>2017-09-22T00:31:57Z</time>
      </trkpt>
      <trkpt lat="52.06992" lon="6.3353">
        <time>2017-09-22T00:32:04Z</time>
      </trkpt>
      <trkpt lat="52.06984" lon="6.33574">
        <time>2017-09-22T00:32:06Z</time>
      </trkpt>
      <trkpt lat="52.06965" lon="6.33646">
        <time>2017-09-22T00:32:09Z</time>
      </trkpt>
      <trkpt lat="52.06929" lon="6.33765">
        <time>2017-09-22T00:32:14Z</time>
      </trkpt>
      <trkpt lat="52.06891" lon="6.33872">
        <time>2017-09-22T00:32:19Z</time>
      </trkpt>
      <trkpt lat="52.0688" lon="6.33883">
        <time>2017-09-22T00:32:19Z</time>
      </trkpt>
      <trkpt lat="52.06863" lon="6.33896">
        <time>2017-09-22T00:32:21Z</time>
      </trkpt>
      <trkpt lat="52.06814" lon="6.33922">
        <time>2017-09-22T00:32:24Z</time>
      </trkpt>
      <trkpt lat="52.06814" lon="6.33922">
        <time>2017-09-22T00:32:24Z</time>
      </trkpt>
      <trkpt lat="52.06693" lon="6.33991">
        <time>2017-09-22T00:32:32Z</time>
      </trkpt>
      <trkpt lat="52.06675" lon="6.34003">
        <time>2017-09-22T00:32:33Z</time>
      </trkpt>
      <trkpt lat="52.06663" lon="6.34015">
        <time>2017-09-22T00:32:34Z</time>
      </trkpt>
      <trkpt lat="52.0665" lon="6.3403">
        <time>2017-09-22T00:32:35Z</time>
      </trkpt>
      <trkpt lat="52.06637" lon="6.3405">
        <time>2017-09-22T00:32:36Z</time>
      </trkpt>
      <trkpt lat="52.06567" lon="6.3417">
        <time>2017-09-22T00:32:42Z</time>
      </trkpt>
      <trkpt lat="52.06455" lon="6.34368">
        <time>2017-09-22T00:32:52Z</time>
      </trkpt>
      <trkpt lat="52.06192" lon="6.3482">
        <time>2017-09-22T00:33:16Z</time>
      </trkpt>
      <trkpt lat="52.06185" lon="6.3483">
        <time>2017-09-22T00:33:16Z</time>
      </trkpt>
      <trkpt lat="52.06163" lon="6.34755">
        <time>2017-09-22T00:33:20Z</time>
      </trkpt>
      <trkpt lat="52.06163" lon="6.34755">
        <time>2017-09-22T00:33:20Z</time>
      </trkpt>
      <trkpt lat="52.06185" lon="6.3483">
        <time>2017-09-22T00:33:23Z</time>
      </trkpt>
      <trkpt lat="52.06192" lon="6.34821">
        <time>2017-09-22T00:33:23Z</time>
      </trkpt>
      <trkpt lat="52.06181" lon="6.34793">
        <time>2017-09-22T00:33:25Z</time>
      </trkpt>
      <trkpt lat="52.06153" lon="6.34688">
        <time>2017-09-22T00:33:29Z</time>
      </trkpt>
      <trkpt lat="52.06108" lon="6.34525">
        <time>2017-09-22T00:33:36Z</time>
      </trkpt>
      <trkpt lat="52.06079" lon="6.34437">
        <time>2017-09-22T00:33:39Z</time>
      </trkpt>
      <trkpt lat="52.05993" lon="6.34206">
        <time>2017-09-22T00:33:50Z</time>
      </trkpt>
      <trkpt lat="52.05976" lon="6.34119">
        <time>2017-09-22T00:33:53Z</time>
      </trkpt>
      <trkpt lat="52.05885" lon="6.3358">
        <time>2017-09-22T00:34:14Z</time>
      </trkpt>
      <trkpt lat="52.0588" lon="6.33551">
        <time>2017-09-22T00:34:15Z</time>
      </trkpt>
      <trkpt lat="52.0588" lon="6.33539">
        <time>2017-09-22T00:34:16Z</time>
      </trkpt>
      <trkpt lat="52.05882" lon="6.33511">
        <time>2017-09-22T00:34:17Z</time>
      </trkpt>
      <trkpt lat="52.05862" lon="6.33516">
        <time>2017-09-22T00:34:18Z</time>
      </trkpt>
      <trkpt lat="52.05857" lon="6.33518">
        <time>2017-09-22T00:34:18Z</time>
      </trkpt>
      <trkpt lat="52.05852" lon="6.33527">
        <time>2017-09-22T00:34:19Z</time>
      </trkpt>
      <trkpt lat="52.05771" lon="6.33768">
        <time>2017-09-22T00:34:29Z</time>
      </trkpt>
      <trkpt lat="52.05771" lon="6.33768">
        <time>2017-09-22T00:34:29Z</time>
      </trkpt>
      <trkpt lat="52.0558" lon="6.34348">
        <time>2017-09-22T00:34:54Z</time>
      </trkpt>
      <trkpt lat="52.05565" lon="6.34385">
        <time>2017-09-22T00:34:56Z</time>
      </trkpt>
      <trkpt lat="52.05499" lon="6.34509">
        <time>2017-09-22T00:35:02Z</time>
      </trkpt>
      <trkpt lat="52.05355" lon="6.34993">
        <time>2017-09-22T00:35:22Z</time>
      </trkpt>
      <trkpt lat="52.05254" lon="6.35056">
        <time>2017-09-22T00:35:29Z</time>
      </trkpt>
      <trkpt lat="52.05254" lon="6.35056">
        <time>2017-09-22T00:35:29Z</time>
      </trkpt>
      <trkpt lat="52.0516" lon="6.35114">
        <time>2017-09-22T00:35:35Z</time>
      </trkpt>
      <trkpt lat="52.05124" lon="6.35189">
        <time>2017-09-22T00:35:39Z</time>
      </trkpt>
      <trkpt lat="52.05115" lon="6.35207">
        <time>2017-09-22T00:35:40Z</time>
      </trkpt>
      <trkpt lat="52.05115" lon="6.35207">
        <time>2017-09-22T00:35:40Z</time>
      </trkpt>
      <trkpt lat="52.04979" lon="6.35493">
        <time>2017-09-22T00:35:53Z</time>
      </trkpt>
      <trkpt lat="52.04916" lon="6.35621">
        <time>2017-09-22T00:36:00Z</time>
      </trkpt>
      <trkpt lat="52.0484" lon="6.35783">
        <time>2017-09-22T00:36:07Z</time>
      </trkpt>
      <trkpt lat="52.04803" lon="6.35865">
        <time>2017-09-22T00:36:11Z</time>
      </trkpt>
      <trkpt lat="52.04739" lon="6.3599">
        <time>2017-09-22T00:36:17Z</time>
      </trkpt>
      <trkpt lat="52.04723" lon="6.36021">
        <time>2017-09-22T00:36:19Z</time>
      </trkpt>
      <trkpt lat="52.04723" lon="6.36021">
        <time>2017-09-22T00:36:19Z</time>
      </trkpt>
      <trkpt lat="52.04668" lon="6.36132">
        <time>2017-09-22T00:36:24Z</time>
      </trkpt>
      <trkpt lat="52.04584" lon="6.36317">
        <time>2017-09-22T00:36:33Z</time>
      </trkpt>
      <trkpt lat="52.04552" lon="6.36402">
        <time>2017-09-22T00:36:37Z</time>
      </trkpt>
      <trkpt lat="52.04552" lon="6.36402">
        <time>2017-09-22T00:36:37Z</time>
      </trkpt>
      <trkpt lat="52.04374" lon="6.36874">
        <time>2017-09-22T00:36:58Z</time>
      </trkpt>
      <trkpt lat="52.04374" lon="6.36874">
        <time>2017-09-22T00:36:58Z</time>
      </trkpt>
      <trkpt lat="52.04349" lon="6.36939">
        <time>2017-09-22T00:37:01Z</time>
      </trkpt>
      <trkpt lat="52.04352" lon="6.36942">
        <time>2017-09-22T00:37:01Z</time>
      </trkpt>
      <trkpt lat="52.044" lon="6.3702">
        <time>2017-09-22T00:37:05Z</time>
      </trkpt>
      <trkpt lat="52.04481" lon="6.37151">
        <time>2017-09-22T00:37:12Z</time>
      </trkpt>
      <trkpt lat="52.04516" lon="6.37206">
        <time>2017-09-22T00:37:15Z</time>
      </trkpt>
      <trkpt lat="52.04787" lon="6.37672">
        <time>2017-09-22T00:37:39Z</time>
      </trkpt>
      <trkpt lat="52.048" lon="6.37698">
        <time>2017-09-22T00:37:41Z</time>
      </trkpt>
      <trkpt lat="52.04814" lon="6.37737">
        <time>2017-09-22T00:37:42Z</time>
      </trkpt>
      <trkpt lat="52.04856" lon="6.37864">
        <time>2017-09-22T00:37:48Z</time>
      </trkpt>
      <trkpt lat="52.04866" lon="6.37889">
        <time>2017-09-22T00:37:49Z</time>
      </trkpt>
      <trkpt lat="52.04892" lon="6.37867">
        <time>2017-09-22T00:37:51Z</time>
      </trkpt>
      <trkpt lat="52.04929" lon="6.37833">
        <time>2017-09-22T00:37:53Z</time>
      </trkpt>
      <trkpt lat="52.04949" lon="6.37819">
        <time>2017-09-22T00:37:55Z</time>
      </trkpt>
      <trkpt lat="52.04949" lon="6.37819">
        <time>2017-09-22T00:37:55Z</time>
      </trkpt>
      <trkpt lat="52.04981" lon="6.37806">
        <time>2017-09-22T00:37:57Z</time>
      </trkpt>
      <trkpt lat="52.05082" lon="6.37782">
        <time>2017-09-22T00:38:03Z</time>
      </trkpt>
      <trkpt lat="52.05106" lon="6.37777">
        <time>2017-09-22T00:38:05Z</time>
      </trkpt>
      <trkpt lat="52.05132" lon="6.37774">
        <time>2017-09-22T00:38:06Z</time>
      </trkpt>
      <trkpt lat="52.05157" lon="6.37778">
        <time>2017-09-22T00:38:08Z</time>
      </trkpt>
      <trkpt lat="52.05194" lon="6.3779">
        <time>2017-09-22T00:38:10Z</time>
      </trkpt>
      <trkpt lat="52.05258" lon="6.37814">
        <time>2017-09-22T00:38:14Z</time>
      </trkpt>
      <trkpt lat="52.05282" lon="6.37813">
        <time>2017-09-22T00:38:16Z</time>
      </trkpt>
      <trkpt lat="52.05332" lon="6.37788">
        <time>2017-09-22T00:38:19Z</time>
      </trkpt>
      <trkpt lat="52.0535" lon="6.37777">
        <time>2017-09-22T00:38:20Z</time>
      </trkpt>
      <trkpt lat="52.05357" lon="6.37803">
        <time>2017-09-22T00:38:21Z</time>
      </trkpt>
      <trkpt lat="52.05366" lon="6.37848">
        <time>2017-09-22T00:38:23Z</time>
      </trkpt>
      <trkpt lat="52.05358" lon="6.37943">
        <time>2017-09-22T00:38:26Z</time>
      </trkpt>
      <trkpt lat="52.05344" lon="6.38041">
        <time>2017-09-22T00:38:30Z</time>
      </trkpt>
      <trkpt lat="52.05328" lon="6.38113">
        <time>2017-09-22T00:38:33Z</time>
      </trkpt>
      <trkpt lat="52.05326" lon="6.3813">
        <time>2017-09-22T00:38:34Z</time>
      </trkpt>
      <trkpt lat="52.05326" lon="6.3813">
        <time>2017-09-22T00:38:34Z</time>
      </trkpt>
      <trkpt lat="52.05322" lon="6.38164">
        <time>2017-09-22T00:38:35Z</time>
      </trkpt>
      <trkpt lat="52.05321" lon="6.38228">
        <time>2017-09-22T00:38:38Z</time>
      </trkpt>
      <trkpt lat="52.05324" lon="6.38299">
        <time>2017-09-22T00:38:40Z</time>
      </trkpt>
      <trkpt lat="52.0533" lon="6.38355">
        <time>2017-09-22T00:38:42Z</time>
      </trkpt>
      <trkpt lat="52.05342" lon="6.38414">
        <time>2017-09-22T00:38:45Z</time>
      </trkpt>
      <trkpt lat="52.05365" lon="6.38501">
        <time>2017-09-22T00:38:48Z</time>
      </trkpt>
      <trkpt lat="52.05379" lon="6.38542">
        <time>2017-09-22T00:38:50Z</time>
      </trkpt>
      <trkpt lat="52.05403" lon="6.38627">
        <time>2017-09-22T00:38:54Z</time>
      </trkpt>
      <trkpt lat="52.05479" lon="6.39078">
        <time>2017-09-22T00:39:11Z</time>
      </trkpt>
      <trkpt lat="52.05536" lon="6.39508">
        <time>2017-09-22T00:39:28Z</time>
      </trkpt>
      <trkpt lat="52.05568" lon="6.39678">
        <time>2017-09-22T00:39:35Z</time>
      </trkpt>
      <trkpt lat="52.05579" lon="6.39755">
        <time>2017-09-22T00:39:38Z</time>
      </trkpt>
      <trkpt lat="52.05589" lon="6.39892">
        <time>2017-09-22T00:39:43Z</time>
      </trkpt>
      <trkpt lat="52.05585" lon="6.39934">
        <time>2017-09-22T00:39:45Z</time>
      </trkpt>
      <trkpt lat="52.0556" lon="6.40079">
        <time>2017-09-22T00:39:50Z</time>
      </trkpt>
      <trkpt lat="52.05552" lon="6.40125">
        <time>2017-09-22T00:39:52Z</time>
      </trkpt>
      <trkpt lat="52.05537" lon="6.40168">
        <time>2017-09-22T00:39:54Z</time>
      </trkpt>
      <trkpt lat="52.05519" lon="6.40208">
        <time>2017-09-22T00:39:56Z</time>
      </trkpt>
      <trkpt lat="52.055" lon="6.40243">
        <time>2017-09-22T00:39:58Z</time>
      </trkpt>
      <trkpt lat="52.05372" lon="6.40419">
        <time>2017-09-22T00:40:08Z</time>
      </trkpt>
      <trkpt lat="52.05372" lon="6.40419">
        <time>2017-09-22T00:40:08Z</time>
      </trkpt>
      <trkpt lat="52.05224" lon="6.40628">
        <time>2017-09-22T00:40:20Z</time>
      </trkpt>
      <trkpt lat="52.05156" lon="6.40687">
        <time>2017-09-22T00:40:25Z</time>
      </trkpt>
      <trkpt lat="52.05134" lon="6.40697">
        <time>2017-09-22T00:40:26Z</time>
      </trkpt>
      <trkpt lat="52.04962" lon="6.40685">
        <time>2017-09-22T00:40:37Z</time>
      </trkpt>
      <trkpt lat="52.04941" lon="6.40687">
        <time>2017-09-22T00:40:38Z</time>
      </trkpt>
      <trkpt lat="52.04926" lon="6.40694">
        <time>2017-09-22T00:40:39Z</time>
      </trkpt>
      <trkpt lat="52.04915" lon="6.40705">
        <time>2017-09-22T00:40:40Z</time>
      </trkpt>
      <trkpt lat="52.04894" lon="6.40737">
        <time>2017-09-22T00:40:42Z</time>
      </trkpt>
      <trkpt lat="52.04876" lon="6.40775">
        <time>2017-09-22T00:40:43Z</time>
      </trkpt>
      <trkpt lat="52.04876" lon="6.40775">
        <time>2017-09-22T00:40:43Z</time>
      </trkpt>
      <trkpt lat="52.04742" lon="6.41053">
        <time>2017-09-22T00:40:57Z</time>
      </trkpt>
      <trkpt lat="52.04654" lon="6.4124">
        <time>2017-09-22T00:41:06Z</time>
      </trkpt>
      <trkpt lat="52.04775" lon="6.41336">
        <time>2017-09-22T00:41:14Z</time>
      </trkpt>
      <trkpt lat="52.04886" lon="6.4142">
        <time>2017-09-22T00:41:22Z</time>
      </trkpt>
      <trkpt lat="52.04916" lon="6.4145">
        <time>2017-09-22T00:41:24Z</time>
      </trkpt>
      <trkpt lat="52.04937" lon="6.41476">
        <time>2017-09-22T00:41:25Z</time>
      </trkpt>
      <trkpt lat="52.04997" lon="6.41575">
        <time>2017-09-22T00:41:31Z</time>
      </trkpt>
      <trkpt lat="52.05057" lon="6.41674">
        <time>2017-09-22T00:41:36Z</time>
      </trkpt>
      <trkpt lat="52.05099" lon="6.41727">
        <time>2017-09-22T00:41:39Z</time>
      </trkpt>
      <trkpt lat="52.05367" lon="6.42056">
        <time>2017-09-22T00:42:00Z</time>
      </trkpt>
      <trkpt lat="52.05388" lon="6.42084">
        <time>2017-09-22T00:42:01Z</time>
      </trkpt>
      <trkpt lat="52.054" lon="6.42106">
        <time>2017-09-22T00:42:03Z</time>
      </trkpt>
      <trkpt lat="52.05416" lon="6.4214">
        <time>2017-09-22T00:42:04Z</time>
      </trkpt>
      <trkpt lat="52.05454" lon="6.42235">
        <time>2017-09-22T00:42:08Z</time>
      </trkpt>
      <trkpt lat="52.05487" lon="6.42316">
        <time>2017-09-22T00:42:12Z</time>
      </trkpt>
      <trkpt lat="52.05509" lon="6.42359">
        <time>2017-09-22T00:42:14Z</time>
      </trkpt>
      <trkpt lat="52.05521" lon="6.42378">
        <time>2017-09-22T00:42:15Z</time>
      </trkpt>
      <trkpt lat="52.05567" lon="6.42437">
        <time>2017-09-22T00:42:19Z</time>
      </trkpt>
      <trkpt lat="52.05652" lon="6.42547">
        <time>2017-09-22T00:42:26Z</time>
      </trkpt>
      <trkpt lat="52.05678" lon="6.42572">
        <time>2017-09-22T00:42:27Z</time>
      </trkpt>
      <trkpt lat="52.05708" lon="6.42592">
        <time>2017-09-22T00:42:29Z</time>
      </trkpt>
      <trkpt lat="52.05747" lon="6.42611">
        <time>2017-09-22T00:42:32Z</time>
      </trkpt>
      <trkpt lat="52.05878" lon="6.42661">
        <time>2017-09-22T00:42:40Z</time>
      </trkpt>
      <trkpt lat="52.06151" lon="6.42769">
        <time>2017-09-22T00:42:58Z</time>
      </trkpt>
      <trkpt lat="52.06179" lon="6.42779">
        <time>2017-09-22T00:42:59Z</time>
      </trkpt>
      <trkpt lat="52.06207" lon="6.42783">
        <time>2017-09-22T00:43:01Z</time>
      </trkpt>
      <trkpt lat="52.06239" lon="6.42785">
        <time>2017-09-22T00:43:03Z</time>
      </trkpt>
      <trkpt lat="52.06344" lon="6.42772">
        <time>2017-09-22T00:43:10Z</time>
      </trkpt>
      <trkpt lat="52.06628" lon="6.42741">
        <time>2017-09-22T00:43:27Z</time>
      </trkpt>
      <trkpt lat="52.07014" lon="6.42696">
        <time>2017-09-22T00:43:51Z</time>
      </trkpt>
      <trkpt lat="52.07121" lon="6.42682">
        <time>2017-09-22T00:43:57Z</time>
      </trkpt>
      <trkpt lat="52.07157" lon="6.42681">
        <time>2017-09-22T00:44:00Z</time>
      </trkpt>
      <trkpt lat="52.07183" lon="6.42685">
        <time>2017-09-22T00:44:01Z</time>
      </trkpt>
      <trkpt lat="52.07206" lon="6.42693">
        <time>2017-09-22T00:44:03Z</time>
      </trkpt>
      <trkpt lat="52.07238" lon="6.42713">
        <time>2017-09-22T00:44:05Z</time>
      </trkpt>
      <trkpt lat="52.07271" lon="6.42743">
        <time>2017-09-22T00:44:07Z</time>
      </trkpt>
      <trkpt lat="52.07291" lon="6.42768">
        <time>2017-09-22T00:44:09Z</time>
      </trkpt>
      <trkpt lat="52.07339" lon="6.42844">
        <time>2017-09-22T00:44:13Z</time>
      </trkpt>
      <trkpt lat="52.0753" lon="6.43142">
        <time>2017-09-22T00:44:29Z</time>
      </trkpt>
      <trkpt lat="52.07554" lon="6.43184">
        <time>2017-09-22T00:44:31Z</time>
      </trkpt>
      <trkpt lat="52.07729" lon="6.4353">
        <time>2017-09-22T00:44:48Z</time>
      </trkpt>
      <trkpt lat="52.07756" lon="6.43574">
        <time>2017-09-22T00:44:51Z</time>
      </trkpt>
      <trkpt lat="52.07784" lon="6.43611">
        <time>2017-09-22T00:44:53Z</time>
      </trkpt>
      <trkpt lat="52.07831" lon="6.43668">
        <time>2017-09-22T00:44:56Z</time>
      </trkpt>
      <trkpt lat="52.07937" lon="6.43806">
        <time>2017-09-22T00:45:05Z</time>
      </trkpt>
      <trkpt lat="52.07946" lon="6.43819">
        <time>2017-09-22T00:45:06Z</time>
      </trkpt>
      <trkpt lat="52.07964" lon="6.43833">
        <time>2017-09-22T00:45:07Z</time>
      </trkpt>
      <trkpt lat="52.07966" lon="6.43855">
        <time>2017-09-22T00:45:08Z</time>
      </trkpt>
      <trkpt lat="52.07975" lon="6.43869">
        <time>2017-09-22T00:45:08Z</time>
      </trkpt>
      <trkpt lat="52.07978" lon="6.43872">
        <time>2017-09-22T00:45:09Z</time>
      </trkpt>
      <trkpt lat="52.07978" lon="6.43875">
        <time>2017-09-22T00:45:09Z</time>
      </trkpt>
      <trkpt lat="52.07968" lon="6.43945">
        <time>2017-09-22T00:45:11Z</time>
      </trkpt>
      <trkpt lat="52.07968" lon="6.43945">
        <time>2017-09-22T00:45:11Z</time>
      </trkpt>
      <trkpt lat="52.07952" lon="6.44069">
        <time>2017-09-22T00:45:16Z</time>
      </trkpt>
      <trkpt lat="52.0794" lon="6.44178">
        <time>2017-09-22T00:45:20Z</time>
      </trkpt>
      <trkpt lat="52.07943" lon="6.44201">
        <time>2017-09-22T00:45:21Z</time>
      </trkpt>
      <trkpt lat="52.07947" lon="6.4427">
        <time>2017-09-22T00:45:24Z</time>
      </trkpt>
      <trkpt lat="52.07952" lon="6.44305">
        <time>2017-09-22T00:45:25Z</time>
      </trkpt>
      <trkpt lat="52.0796" lon="6.44347">
        <time>2017-09-22T00:45:27Z</time>
      </trkpt>
      <trkpt lat="52.07979" lon="6.4441">
        <time>2017-09-22T00:45:30Z</time>
      </trkpt>
      <trkpt lat="52.07992" lon="6.44447">
        <time>2017-09-22T00:45:31Z</time>
      </trkpt>
      <trkpt lat="52.07993" lon="6.44458">
        <time>2017-09-22T00:45:32Z</time>
      </trkpt>
      <trkpt lat="52.08016" lon="6.44527">
        <time>2017-09-22T00:45:35Z</time>
      </trkpt>
      <trkpt lat="52.08015" lon="6.44529">
        <time>2017-09-22T00:45:35Z</time>
      </trkpt>
      <trkpt lat="52.08014" lon="6.44534">
        <time>2017-09-22T00:45:35Z</time>
      </trkpt>
      <trkpt lat="52.08014" lon="6.44545">
        <time>2017-09-22T00:45:35Z</time>
      </trkpt>
      <trkpt lat="52.08017" lon="6.44555">
        <time>2017-09-22T00:45:36Z</time>
      </trkpt>
      <trkpt lat="52.08009" lon="6.44586">
        <time>2017-09-22T00:45:37Z</time>
      </trkpt>
      <trkpt lat="52.08001" lon="6.44611">
        <time>2017-09-22T00:45:38Z</time>
      </trkpt>
      <trkpt lat="52.08001" lon="6.44611">
        <time>2017-09-22T00:45:38Z</time>
      </trkpt>
      <trkpt lat="52.07999" lon="6.44617">
        <time>2017-09-22T00:45:38Z</time>
      </trkpt>
      <trkpt lat="52.07992" lon="6.44611">
        <time>2017-09-22T00:45:39Z</time>
      </trkpt>
      <trkpt lat="52.07985" lon="6.44606">
        <time>2017-09-22T00:45:39Z</time>
      </trkpt>
      <trkpt lat="52.0798" lon="6.44619">
        <time>2017-09-22T00:45:40Z</time>
      </trkpt>
      <trkpt lat="52.07972" lon="6.44638">
        <time>2017-09-22T00:45:41Z</time>
      </trkpt>
      <trkpt lat="52.07972" lon="6.44638">
        <time>2017-09-22T00:45:41Z</time>
      </trkpt>
      <trkpt lat="52.07962" lon="6.44654">
        <time>2017-09-22T00:45:42Z</time>
      </trkpt>
      <trkpt lat="52.07948" lon="6.44673">
        <time>2017-09-22T00:45:43Z</time>
      </trkpt>
      <trkpt lat="52.07888" lon="6.44732">
        <time>2017-09-22T00:45:47Z</time>
      </trkpt>
      <trkpt lat="52.07736" lon="6.44889">
        <time>2017-09-22T00:45:58Z</time>
      </trkpt>
      <trkpt lat="52.07685" lon="6.44916">
        <time>2017-09-22T00:46:01Z</time>
      </trkpt>
      <trkpt lat="52.07556" lon="6.44976">
        <time>2017-09-22T00:46:10Z</time>
      </trkpt>
      <trkpt lat="52.07415" lon="6.45046">
        <time>2017-09-22T00:46:19Z</time>
      </trkpt>
      <trkpt lat="52.07373" lon="6.4506">
        <time>2017-09-22T00:46:21Z</time>
      </trkpt>
      <trkpt lat="52.07338" lon="6.4507">
        <time>2017-09-22T00:46:24Z</time>
      </trkpt>
      <trkpt lat="52.07327" lon="6.45074">
        <time>2017-09-22T00:46:24Z</time>
      </trkpt>
      <trkpt lat="52.0728" lon="6.45113">
        <time>2017-09-22T00:46:28Z</time>
      </trkpt>
      <trkpt lat="52.07187" lon="6.45193">
        <time>2017-09-22T00:46:34Z</time>
      </trkpt>
      <trkpt lat="52.07065" lon="6.45298">
        <time>2017-09-22T00:46:43Z</time>
      </trkpt>
      <trkpt lat="52.07013" lon="6.45337">
        <time>2017-09-22T00:46:46Z</time>
      </trkpt>
      <trkpt lat="52.06968" lon="6.45361">
        <time>2017-09-22T00:46:49Z</time>
      </trkpt>
      <trkpt lat="52.06935" lon="6.45377">
        <time>2017-09-22T00:46:51Z</time>
      </trkpt>
      <trkpt lat="52.06902" lon="6.45399">
        <time>2017-09-22T00:46:53Z</time>
      </trkpt>
      <trkpt lat="52.06847" lon="6.45445">
        <time>2017-09-22T00:46:57Z</time>
      </trkpt>
      <trkpt lat="52.06828" lon="6.45466">
        <time>2017-09-22T00:46:59Z</time>
      </trkpt>
      <trkpt lat="52.06797" lon="6.45507">
        <time>2017-09-22T00:47:01Z</time>
      </trkpt>
      <trkpt lat="52.06773" lon="6.45543">
        <time>2017-09-22T00:47:03Z</time>
      </trkpt>
      <trkpt lat="52.06731" lon="6.45618">
        <time>2017-09-22T00:47:07Z</time>
      </trkpt>
      <trkpt lat="52.06715" lon="6.45646">
        <time>2017-09-22T00:47:08Z</time>
      </trkpt>
      <trkpt lat="52.06729" lon="6.45669">
        <time>2017-09-22T00:47:10Z</time>
      </trkpt>
      <trkpt lat="52.06737" lon="6.45684">
        <time>2017-09-22T00:47:10Z</time>
      </trkpt>
      <trkpt lat="52.06741" lon="6.45703">
        <time>2017-09-22T00:47:11Z</time>
      </trkpt>
      <trkpt lat="52.06751" lon="6.45783">
        <time>2017-09-22T00:47:14Z</time>
      </trkpt>
      <trkpt lat="52.06751" lon="6.45783">
        <time>2017-09-22T00:47:14Z</time>
      </trkpt>
      <trkpt lat="52.06815" lon="6.46331">
        <time>2017-09-22T00:47:35Z</time>
      </trkpt>
      <trkpt lat="52.06822" lon="6.46373">
        <time>2017-09-22T00:47:37Z</time>
      </trkpt>
      <trkpt lat="52.06876" lon="6.46592">
        <time>2017-09-22T00:47:46Z</time>
      </trkpt>
      <trkpt lat="52.06942" lon="6.46672">
        <time>2017-09-22T00:47:51Z</time>
      </trkpt>
      <trkpt lat="52.06947" lon="6.4668">
        <time>2017-09-22T00:47:51Z</time>
      </trkpt>
      <trkpt lat="52.06943" lon="6.46696">
        <time>2017-09-22T00:47:52Z</time>
      </trkpt>
      <trkpt lat="52.06915" lon="6.46759">
        <time>2017-09-22T00:47:55Z</time>
      </trkpt>
      <trkpt lat="52.06915" lon="6.46759">
        <time>2017-09-22T00:47:55Z</time>
      </trkpt>
      <trkpt lat="52.06882" lon="6.4683">
        <time>2017-09-22T00:47:58Z</time>
      </trkpt>
      <trkpt lat="52.0685" lon="6.46954">
        <time>2017-09-22T00:48:03Z</time>
      </trkpt>
      <trkpt lat="52.06842" lon="6.46955">
        <time>2017-09-22T00:48:04Z</time>
      </trkpt>
      <trkpt lat="52.06828" lon="6.46964">
        <time>2017-09-22T00:48:05Z</time>
      </trkpt>
      <trkpt lat="52.06727" lon="6.47058">
        <time>2017-09-22T00:48:12Z</time>
      </trkpt>
      <trkpt lat="52.06727" lon="6.47058">
        <time>2017-09-22T00:48:12Z</time>
      </trkpt>
      <trkpt lat="52.06478" lon="6.47292">
        <time>2017-09-22T00:48:30Z</time>
      </trkpt>
      <trkpt lat="52.06067" lon="6.4783">
        <time>2017-09-22T00:49:02Z</time>
      </trkpt>
      <trkpt lat="52.0581" lon="6.48166">
        <time>2017-09-22T00:49:22Z</time>
      </trkpt>
      <trkpt lat="52.05717" lon="6.48287">
        <time>2017-09-22T00:49:30Z</time>
      </trkpt>
      <trkpt lat="52.05672" lon="6.4835">
        <time>2017-09-22T00:49:33Z</time>
      </trkpt>
      <trkpt lat="52.05437" lon="6.48656">
        <time>2017-09-22T00:49:52Z</time>
      </trkpt>
      <trkpt lat="52.05303" lon="6.48832">
        <time>2017-09-22T00:50:03Z</time>
      </trkpt>
      <trkpt lat="52.05213" lon="6.49095">
        <time>2017-09-22T00:50:14Z</time>
      </trkpt>
      <trkpt lat="52.05132" lon="6.49325">
        <time>2017-09-22T00:50:24Z</time>
      </trkpt>
      <trkpt lat="52.05121" lon="6.49345">
        <time>2017-09-22T00:50:25Z</time>
      </trkpt>
      <trkpt lat="52.05108" lon="6.49361">
        <time>2017-09-22T00:50:26Z</time>
      </trkpt>
      <trkpt lat="52.04845" lon="6.49566">
        <time>2017-09-22T00:50:44Z</time>
      </trkpt>
      <trkpt lat="52.04617" lon="6.49746">
        <time>2017-09-22T00:51:00Z</time>
      </trkpt>
      <trkpt lat="52.04603" lon="6.49769">
        <time>2017-09-22T00:51:01Z</time>
      </trkpt>
      <trkpt lat="52.04569" lon="6.49839">
        <time>2017-09-22T00:51:04Z</time>
      </trkpt>
      <trkpt lat="52.04569" lon="6.49839">
        <time>2017-09-22T00:51:04Z</time>
      </trkpt>
      <trkpt lat="52.04546" lon="6.49903">
        <time>2017-09-22T00:51:07Z</time>
      </trkpt>
      <trkpt lat="52.0454" lon="6.49921">
        <time>2017-09-22T00:51:08Z</time>
      </trkpt>
      <trkpt lat="52.04477" lon="6.50053">
        <time>2017-09-22T00:51:14Z</time>
      </trkpt>
      <trkpt lat="52.0459" lon="6.50196">
        <time>2017-09-22T00:51:23Z</time>
      </trkpt>
      <trkpt lat="52.0459" lon="6.50196">
        <time>2017-09-22T00:51:23Z</time>
      </trkpt>
      <trkpt lat="52.0503" lon="6.50755">
        <time>2017-09-22T00:51:57Z</time>
      </trkpt>
      <trkpt lat="52.04878" lon="6.50945">
        <time>2017-09-22T00:52:09Z</time>
      </trkpt>
      <trkpt lat="52.04878" lon="6.50945">
        <time>2017-09-22T00:52:09Z</time>
      </trkpt>
      <trkpt lat="52.04294" lon="6.51681">
        <time>2017-09-22T00:52:55Z</time>
      </trkpt>
      <trkpt lat="52.04294" lon="6.51681">
        <time>2017-09-22T00:52:55Z</time>
      </trkpt>
      <trkpt lat="52.04025" lon="6.52019">
        <time>2017-09-22T00:53:16Z</time>
      </trkpt>
      <trkpt lat="52.03561" lon="6.52602">
        <time>2017-09-22T00:53:52Z</time>
      </trkpt>
      <trkpt lat="52.03413" lon="6.52789">
        <time>2017-09-22T00:54:03Z</time>
      </trkpt>
      <trkpt lat="52.03413" lon="6.52789">
        <time>2017-09-22T00:54:03Z</time>
      </trkpt>
      <trkpt lat="52.03183" lon="6.53081">
        <time>2017-09-22T00:54:21Z</time>
      </trkpt>
      <trkpt lat="52.03183" lon="6.53081">
        <time>2017-09-22T00:54:21Z</time>
      </trkpt>
      <trkpt lat="52.02985" lon="6.53328">
        <time>2017-09-22T00:54:37Z</time>
      </trkpt>
      <trkpt lat="52.02823" lon="6.53529">
        <time>2017-09-22T00:54:49Z</time>
      </trkpt>
      <trkpt lat="52.02823" lon="6.53529">
        <time>2017-09-22T00:54:49Z</time>
      </trkpt>
      <trkpt lat="52.02516" lon="6.53912">
        <time>2017-09-22T00:55:13Z</time>
      </trkpt>
      <trkpt lat="52.02306" lon="6.54185">
        <time>2017-09-22T00:55:29Z</time>
      </trkpt>
      <trkpt lat="52.01943" lon="6.54626">
        <time>2017-09-22T00:55:57Z</time>
      </trkpt>
      <trkpt lat="52.01802" lon="6.54768">
        <time>2017-09-22T00:56:08Z</time>
      </trkpt>
      <trkpt lat="52.01684" lon="6.54866">
        <time>2017-09-22T00:56:16Z</time>
      </trkpt>
      <trkpt lat="52.01638" lon="6.54899">
        <time>2017-09-22T00:56:19Z</time>
      </trkpt>
      <trkpt lat="52.01483" lon="6.55013">
        <time>2017-09-22T00:56:29Z</time>
      </trkpt>
      <trkpt lat="52.01253" lon="6.55181">
        <time>2017-09-22T00:56:45Z</time>
      </trkpt>
      <trkpt lat="52.01132" lon="6.55268">
        <time>2017-09-22T00:56:53Z</time>
      </trkpt>
      <trkpt lat="52.01141" lon="6.55277">
        <time>2017-09-22T00:56:54Z</time>
      </trkpt>
      <trkpt lat="52.01161" lon="6.55291">
        <time>2017-09-22T00:56:55Z</time>
      </trkpt>
      <trkpt lat="52.01191" lon="6.55324">
        <time>2017-09-22T00:56:57Z</time>
      </trkpt>
      <trkpt lat="52.01227" lon="6.55372">
        <time>2017-09-22T00:57:00Z</time>
      </trkpt>
      <trkpt lat="52.01252" lon="6.55419">
        <time>2017-09-22T00:57:02Z</time>
      </trkpt>
      <trkpt lat="52.01252" lon="6.55419">
        <time>2017-09-22T00:57:02Z</time>
      </trkpt>
      <trkpt lat="52.01281" lon="6.55488">
        <time>2017-09-22T00:57:06Z</time>
      </trkpt>
      <trkpt lat="52.01317" lon="6.55588">
        <time>2017-09-22T00:57:10Z</time>
      </trkpt>
      <trkpt lat="52.0133" lon="6.55619">
        <time>2017-09-22T00:57:11Z</time>
      </trkpt>
      <trkpt lat="52.01346" lon="6.55647">
        <time>2017-09-22T00:57:13Z</time>
      </trkpt>
      <trkpt lat="52.01396" lon="6.5571">
        <time>2017-09-22T00:57:17Z</time>
      </trkpt>
      <trkpt lat="52.01513" lon="6.55846">
        <time>2017-09-22T00:57:26Z</time>
      </trkpt>
      <trkpt lat="52.01451" lon="6.5593">
        <time>2017-09-22T00:57:31Z</time>
      </trkpt>
      <trkpt lat="52.01388" lon="6.56016">
        <time>2017-09-22T00:57:36Z</time>
      </trkpt>
      <trkpt lat="52.01356" lon="6.56066">
        <time>2017-09-22T00:57:38Z</time>
      </trkpt>
      <trkpt lat="52.01331" lon="6.56138">
        <time>2017-09-22T00:57:42Z</time>
      </trkpt>
      <trkpt lat="52.01331" lon="6.56138">
        <time>2017-09-22T00:57:42Z</time>
      </trkpt>
      <trkpt lat="52.01176" lon="6.56603">
        <time>2017-09-22T00:58:02Z</time>
      </trkpt>
      <trkpt lat="52.01123" lon="6.56822">
        <time>2017-09-22T00:58:10Z</time>
      </trkpt>
      <trkpt lat="52.01096" lon="6.56941">
        <time>2017-09-22T00:58:15Z</time>
      </trkpt>
      <trkpt lat="52.01084" lon="6.57032">
        <time>2017-09-22T00:58:19Z</time>
      </trkpt>
      <trkpt lat="52.01043" lon="6.57375">
        <time>2017-09-22T00:58:32Z</time>
      </trkpt>
      <trkpt lat="52.01037" lon="6.57463">
        <time>2017-09-22T00:58:35Z</time>
      </trkpt>
      <trkpt lat="52.01066" lon="6.57733">
        <time>2017-09-22T00:58:46Z</time>
      </trkpt>
      <trkpt lat="52.01083" lon="6.57891">
        <time>2017-09-22T00:58:52Z</time>
      </trkpt>
      <trkpt lat="52.01081" lon="6.57914">
        <time>2017-09-22T00:58:53Z</time>
      </trkpt>
      <trkpt lat="52.01077" lon="6.57936">
        <time>2017-09-22T00:58:54Z</time>
      </trkpt>
      <trkpt lat="52.01069" lon="6.57951">
        <time>2017-09-22T00:58:54Z</time>
      </trkpt>
      <trkpt lat="52.01017" lon="6.5803">
        <time>2017-09-22T00:58:59Z</time>
      </trkpt>
      <trkpt lat="52.00999" lon="6.5805">
        <time>2017-09-22T00:59:00Z</time>
      </trkpt>
      <trkpt lat="52.01018" lon="6.5807">
        <time>2017-09-22T00:59:02Z</time>
      </trkpt>
      <trkpt lat="52.0103" lon="6.58087">
        <time>2017-09-22T00:59:03Z</time>
      </trkpt>
      <trkpt lat="52.01041" lon="6.58109">
        <time>2017-09-22T00:59:04Z</time>
      </trkpt>
      <trkpt lat="52.01054" lon="6.5815">
        <time>2017-09-22T00:59:05Z</time>
      </trkpt>
      <trkpt lat="52.01054" lon="6.5815">
        <time>2017-09-22T00:59:05Z</time>
      </trkpt>
      <trkpt lat="52.011" lon="6.58314">
        <time>2017-09-22T00:59:12Z</time>
      </trkpt>
      <trkpt lat="52.01127" lon="6.58489">
        <time>2017-09-22T00:59:19Z</time>
      </trkpt>
      <trkpt lat="52.01127" lon="6.58554">
        <time>2017-09-22T00:59:21Z</time>
      </trkpt>
      <trkpt lat="52.01124" lon="6.58691">
        <time>2017-09-22T00:59:27Z</time>
      </trkpt>
      <trkpt lat="52.01128" lon="6.58736">
        <time>2017-09-22T00:59:28Z</time>
      </trkpt>
      <trkpt lat="52.01167" lon="6.58899">
        <time>2017-09-22T00:59:35Z</time>
      </trkpt>
      <trkpt lat="52.01187" lon="6.58937">
        <time>2017-09-22T00:59:37Z</time>
      </trkpt>
      <trkpt lat="52.01243" lon="6.59033">
        <time>2017-09-22T00:59:42Z</time>
      </trkpt>
      <trkpt lat="52.01255" lon="6.5906">
        <time>2017-09-22T00:59:43Z</time>
      </trkpt>
      <trkpt lat="52.01255" lon="6.59088">
        <time>2017-09-22T00:59:44Z</time>
      </trkpt>
      <trkpt lat="52.01241" lon="6.59208">
        <time>2017-09-22T00:59:49Z</time>
      </trkpt>
      <trkpt lat="52.01221" lon="6.59365">
        <time>2017-09-22T00:59:55Z</time>
      </trkpt>
      <trkpt lat="52.0123" lon="6.59366">
        <time>2017-09-22T00:59:55Z</time>
      </trkpt>
      <trkpt lat="52.0122431" lon="6.5939065">
        <time>2017-09-22T00:59:56Z</time>
      </trkpt>
    </trkseg>
  </trk>
</gpx>

This is Sliced Diazo Plone Theme